<?xml version="1.0" encoding="utf-8"?>
<gpx xmlns:xsi="http://www.w3.org/2001/XMLSchema-instance" xmlns:xsd="http://www.w3.org/2001/XMLSchema" version="1.1" creator="Shapelink.com" xmlns="http://www.topografix.com/GPX/1/1" xmlns:gpxtpx="http://www.garmin.com/xmlschemas/TrackPointExtension/v1">
  <metadata>
    <name>Löpning 25.02 km, 2019-04-20</name>
    <desc></desc>
    <author><name>Marian Moron</name></author> 
    <time>2019-04-20T09:57:53Z</time>
  </metadata>
  <trk>
    <name>Löpning 25.02 km, 2019-04-20</name>
    <trkseg>
      <trkpt lat="51.229019031465" lon="4.458229931725">
        <ele>20.2</ele>
        <time>2019-04-20T09:57:53Z</time>
      </trkpt>
      <trkpt lat="51.228828594697" lon="4.458304530635">
        <ele>17.4</ele>
        <time>2019-04-20T09:58:02Z</time>
      </trkpt>
      <trkpt lat="51.228640001947" lon="4.458346440135">
        <ele>16.4</ele>
        <time>2019-04-20T09:58:09Z</time>
      </trkpt>
      <trkpt lat="51.228518129121" lon="4.45810965146">
        <ele>15.4</ele>
        <time>2019-04-20T09:58:17Z</time>
      </trkpt>
      <trkpt lat="51.228452247387" lon="4.457797174228">
        <ele>14.4</ele>
        <time>2019-04-20T09:58:24Z</time>
      </trkpt>
      <trkpt lat="51.228405560204" lon="4.457517805501">
        <ele>13.4</ele>
        <time>2019-04-20T09:58:31Z</time>
      </trkpt>
      <trkpt lat="51.228386784748" lon="4.45748687629">
        <ele>13</ele>
        <time>2019-04-20T09:58:32Z</time>
      </trkpt>
      <trkpt lat="51.228353257148" lon="4.4574608924">
        <ele>12.2</ele>
        <time>2019-04-20T09:58:34Z</time>
      </trkpt>
      <trkpt lat="51.228300618816" lon="4.45743742308">
        <ele>11.8</ele>
        <time>2019-04-20T09:58:37Z</time>
      </trkpt>
      <trkpt lat="51.22813348373" lon="4.457361063971">
        <ele>10.8</ele>
        <time>2019-04-20T09:58:46Z</time>
      </trkpt>
      <trkpt lat="51.227952602328" lon="4.457450079749">
        <ele>10.6</ele>
        <time>2019-04-20T09:58:54Z</time>
      </trkpt>
      <trkpt lat="51.227755627678" lon="4.457550914006">
        <ele>11.4</ele>
        <time>2019-04-20T09:59:02Z</time>
      </trkpt>
      <trkpt lat="51.227559994132" lon="4.457639845965">
        <ele>10.8</ele>
        <time>2019-04-20T09:59:09Z</time>
      </trkpt>
      <trkpt lat="51.227387410811" lon="4.457723664965">
        <ele>11</ele>
        <time>2019-04-20T09:59:16Z</time>
      </trkpt>
      <trkpt lat="51.227211223273" lon="4.457798850608">
        <ele>10.6</ele>
        <time>2019-04-20T09:59:23Z</time>
      </trkpt>
      <trkpt lat="51.227018439573" lon="4.4578799874">
        <ele>10.2</ele>
        <time>2019-04-20T09:59:30Z</time>
      </trkpt>
      <trkpt lat="51.226837725809" lon="4.457990544661">
        <ele>10.6</ele>
        <time>2019-04-20T09:59:37Z</time>
      </trkpt>
      <trkpt lat="51.226652988733" lon="4.458080985362">
        <ele>11.6</ele>
        <time>2019-04-20T09:59:44Z</time>
      </trkpt>
      <trkpt lat="51.226585095343" lon="4.458112501306">
        <ele>12.6</ele>
        <time>2019-04-20T09:59:47Z</time>
      </trkpt>
      <trkpt lat="51.22640010681" lon="4.458247701353">
        <ele>13.6</ele>
        <time>2019-04-20T09:59:55Z</time>
      </trkpt>
      <trkpt lat="51.226226769118" lon="4.458376782613">
        <ele>13.6</ele>
        <time>2019-04-20T10:00:03Z</time>
      </trkpt>
      <trkpt lat="51.226068099751" lon="4.458515083963">
        <ele>16</ele>
        <time>2019-04-20T10:00:10Z</time>
      </trkpt>
      <trkpt lat="51.225894510602" lon="4.458643327033">
        <ele>18.6</ele>
        <time>2019-04-20T10:00:17Z</time>
      </trkpt>
      <trkpt lat="51.225708767698" lon="4.458686409999">
        <ele>19.8</ele>
        <time>2019-04-20T10:00:25Z</time>
      </trkpt>
      <trkpt lat="51.225542554621" lon="4.458739551245">
        <ele>22.2</ele>
        <time>2019-04-20T10:00:34Z</time>
      </trkpt>
      <trkpt lat="51.225509781392" lon="4.458769055533">
        <ele>22.6</ele>
        <time>2019-04-20T10:00:36Z</time>
      </trkpt>
      <trkpt lat="51.225314315484" lon="4.45880954011">
        <ele>25</ele>
        <time>2019-04-20T10:00:45Z</time>
      </trkpt>
      <trkpt lat="51.225116167368" lon="4.458814988345">
        <ele>26.2</ele>
        <time>2019-04-20T10:00:53Z</time>
      </trkpt>
      <trkpt lat="51.224926987885" lon="4.458831835964">
        <ele>26</ele>
        <time>2019-04-20T10:01:00Z</time>
      </trkpt>
      <trkpt lat="51.224730935244" lon="4.45890509377">
        <ele>27.6</ele>
        <time>2019-04-20T10:01:08Z</time>
      </trkpt>
      <trkpt lat="51.22453513406" lon="4.458914146222">
        <ele>25.4</ele>
        <time>2019-04-20T10:01:15Z</time>
      </trkpt>
      <trkpt lat="51.224345619301" lon="4.458943315234">
        <ele>22.8</ele>
        <time>2019-04-20T10:01:23Z</time>
      </trkpt>
      <trkpt lat="51.224146800633" lon="4.458975166454">
        <ele>21</ele>
        <time>2019-04-20T10:01:32Z</time>
      </trkpt>
      <trkpt lat="51.223957956426" lon="4.459012633547">
        <ele>20.2</ele>
        <time>2019-04-20T10:01:40Z</time>
      </trkpt>
      <trkpt lat="51.223769950409" lon="4.459039874722">
        <ele>21</ele>
        <time>2019-04-20T10:01:47Z</time>
      </trkpt>
      <trkpt lat="51.22357373013" lon="4.459063679318">
        <ele>22.8</ele>
        <time>2019-04-20T10:01:55Z</time>
      </trkpt>
      <trkpt lat="51.22339016652" lon="4.459071642123">
        <ele>23.4</ele>
        <time>2019-04-20T10:02:03Z</time>
      </trkpt>
      <trkpt lat="51.22319570644" lon="4.45908949557">
        <ele>24</ele>
        <time>2019-04-20T10:02:11Z</time>
      </trkpt>
      <trkpt lat="51.223017088151" lon="4.459140373703">
        <ele>22.4</ele>
        <time>2019-04-20T10:02:17Z</time>
      </trkpt>
      <trkpt lat="51.222847941409" lon="4.459015315755">
        <ele>22.2</ele>
        <time>2019-04-20T10:02:24Z</time>
      </trkpt>
      <trkpt lat="51.222662701419" lon="4.458933005497">
        <ele>19.6</ele>
        <time>2019-04-20T10:02:32Z</time>
      </trkpt>
      <trkpt lat="51.222618612625" lon="4.45887491893">
        <ele>18.2</ele>
        <time>2019-04-20T10:02:35Z</time>
      </trkpt>
      <trkpt lat="51.222478886352" lon="4.459059236911">
        <ele>17.2</ele>
        <time>2019-04-20T10:02:43Z</time>
      </trkpt>
      <trkpt lat="51.222314014379" lon="4.459170967638">
        <ele>18</ele>
        <time>2019-04-20T10:02:50Z</time>
      </trkpt>
      <trkpt lat="51.22213036695" lon="4.459159735892">
        <ele>15.4</ele>
        <time>2019-04-20T10:02:57Z</time>
      </trkpt>
      <trkpt lat="51.221943282942" lon="4.459204998152">
        <ele>13</ele>
        <time>2019-04-20T10:03:04Z</time>
      </trkpt>
      <trkpt lat="51.221761228074" lon="4.459239783037">
        <ele>10.6</ele>
        <time>2019-04-20T10:03:11Z</time>
      </trkpt>
      <trkpt lat="51.221562577044" lon="4.459297701966">
        <ele>11.4</ele>
        <time>2019-04-20T10:03:18Z</time>
      </trkpt>
      <trkpt lat="51.221376331226" lon="4.459347155176">
        <ele>14.2</ele>
        <time>2019-04-20T10:03:25Z</time>
      </trkpt>
      <trkpt lat="51.221206765389" lon="4.459465172328">
        <ele>19.8</ele>
        <time>2019-04-20T10:03:31Z</time>
      </trkpt>
      <trkpt lat="51.221019178467" lon="4.459505740724">
        <ele>23.4</ele>
        <time>2019-04-20T10:03:39Z</time>
      </trkpt>
      <trkpt lat="51.220719609361" lon="4.459613196682">
        <ele>35</ele>
        <time>2019-04-20T10:03:51Z</time>
      </trkpt>
      <trkpt lat="51.22051266025" lon="4.459651418146">
        <ele>35.8</ele>
        <time>2019-04-20T10:03:58Z</time>
      </trkpt>
      <trkpt lat="51.220346195716" lon="4.459688969058">
        <ele>32.2</ele>
        <time>2019-04-20T10:04:06Z</time>
      </trkpt>
      <trkpt lat="51.220319625093" lon="4.459750576023">
        <ele>30.6</ele>
        <time>2019-04-20T10:04:10Z</time>
      </trkpt>
      <trkpt lat="51.220144024288" lon="4.459841184362">
        <ele>31.8</ele>
        <time>2019-04-20T10:04:19Z</time>
      </trkpt>
      <trkpt lat="51.219960795954" lon="4.459909329209">
        <ele>29.6</ele>
        <time>2019-04-20T10:04:26Z</time>
      </trkpt>
      <trkpt lat="51.219780249828" lon="4.460028771284">
        <ele>25.4</ele>
        <time>2019-04-20T10:04:33Z</time>
      </trkpt>
      <trkpt lat="51.219587633766" lon="4.460144525323">
        <ele>24.2</ele>
        <time>2019-04-20T10:04:41Z</time>
      </trkpt>
      <trkpt lat="51.219416140092" lon="4.4603023565">
        <ele>29.4</ele>
        <time>2019-04-20T10:04:48Z</time>
      </trkpt>
      <trkpt lat="51.219240455468" lon="4.460428587914">
        <ele>31.6</ele>
        <time>2019-04-20T10:04:55Z</time>
      </trkpt>
      <trkpt lat="51.219058568238" lon="4.460494637286">
        <ele>28.4</ele>
        <time>2019-04-20T10:05:03Z</time>
      </trkpt>
      <trkpt lat="51.218870394583" lon="4.46062254508">
        <ele>25.4</ele>
        <time>2019-04-20T10:05:11Z</time>
      </trkpt>
      <trkpt lat="51.218688004439" lon="4.460735784549">
        <ele>23.2</ele>
        <time>2019-04-20T10:05:19Z</time>
      </trkpt>
      <trkpt lat="51.218516175489" lon="4.460832008761">
        <ele>16.8</ele>
        <time>2019-04-20T10:05:26Z</time>
      </trkpt>
      <trkpt lat="51.218338814485" lon="4.460951199379">
        <ele>8.6</ele>
        <time>2019-04-20T10:05:33Z</time>
      </trkpt>
      <trkpt lat="51.218166398802" lon="4.461078939535">
        <ele>4.2</ele>
        <time>2019-04-20T10:05:40Z</time>
      </trkpt>
      <trkpt lat="51.217982332278" lon="4.461181701629">
        <ele>2.8</ele>
        <time>2019-04-20T10:05:47Z</time>
      </trkpt>
      <trkpt lat="51.21792935867" lon="4.461266358819">
        <ele>3</ele>
        <time>2019-04-20T10:05:50Z</time>
      </trkpt>
      <trkpt lat="51.217915444716" lon="4.461582021173">
        <ele>4.6</ele>
        <time>2019-04-20T10:05:58Z</time>
      </trkpt>
      <trkpt lat="51.217897675088" lon="4.461905227237">
        <ele>6.4</ele>
        <time>2019-04-20T10:06:06Z</time>
      </trkpt>
      <trkpt lat="51.217891137206" lon="4.462219883763">
        <ele>7.2</ele>
        <time>2019-04-20T10:06:14Z</time>
      </trkpt>
      <trkpt lat="51.217888790274" lon="4.462294147397">
        <ele>7.8</ele>
        <time>2019-04-20T10:06:16Z</time>
      </trkpt>
      <trkpt lat="51.217887868265" lon="4.462330189567">
        <ele>8</ele>
        <time>2019-04-20T10:06:17Z</time>
      </trkpt>
      <trkpt lat="51.21785727433" lon="4.462653647088">
        <ele>6.4</ele>
        <time>2019-04-20T10:06:25Z</time>
      </trkpt>
      <trkpt lat="51.217844030928" lon="4.462969644718">
        <ele>6.6</ele>
        <time>2019-04-20T10:06:33Z</time>
      </trkpt>
      <trkpt lat="51.217831206621" lon="4.463271979851">
        <ele>5.6</ele>
        <time>2019-04-20T10:06:41Z</time>
      </trkpt>
      <trkpt lat="51.217835313752" lon="4.463567609464">
        <ele>6</ele>
        <time>2019-04-20T10:06:49Z</time>
      </trkpt>
      <trkpt lat="51.217832883001" lon="4.463859299584">
        <ele>5</ele>
        <time>2019-04-20T10:06:56Z</time>
      </trkpt>
      <trkpt lat="51.217811257699" lon="4.464145122374">
        <ele>3</ele>
        <time>2019-04-20T10:07:04Z</time>
      </trkpt>
      <trkpt lat="51.21778686637" lon="4.464465310954">
        <ele>3.8</ele>
        <time>2019-04-20T10:07:12Z</time>
      </trkpt>
      <trkpt lat="51.21778016085" lon="4.464780470394">
        <ele>9.4</ele>
        <time>2019-04-20T10:07:20Z</time>
      </trkpt>
      <trkpt lat="51.217763983783" lon="4.465089175771">
        <ele>13.8</ele>
        <time>2019-04-20T10:07:28Z</time>
      </trkpt>
      <trkpt lat="51.217761385394" lon="4.465410873093">
        <ele>13.6</ele>
        <time>2019-04-20T10:07:36Z</time>
      </trkpt>
      <trkpt lat="51.217715787858" lon="4.465602148051">
        <ele>10.4</ele>
        <time>2019-04-20T10:07:44Z</time>
      </trkpt>
      <trkpt lat="51.217733306029" lon="4.465504415097">
        <ele>8</ele>
        <time>2019-04-20T10:07:50Z</time>
      </trkpt>
      <trkpt lat="51.217691396529" lon="4.465346248644">
        <ele>1.2</ele>
        <time>2019-04-20T10:08:02Z</time>
      </trkpt>
      <trkpt lat="51.21769382728" lon="4.465638357859">
        <ele>4.4</ele>
        <time>2019-04-20T10:08:13Z</time>
      </trkpt>
      <trkpt lat="51.217719559713" lon="4.465936837318">
        <ele>5.8</ele>
        <time>2019-04-20T10:08:20Z</time>
      </trkpt>
      <trkpt lat="51.217709501433" lon="4.466236490243">
        <ele>2.6</ele>
        <time>2019-04-20T10:08:27Z</time>
      </trkpt>
      <trkpt lat="51.217692905271" lon="4.466547626371">
        <ele>1</ele>
        <time>2019-04-20T10:08:34Z</time>
      </trkpt>
      <trkpt lat="51.217673543082" lon="4.466847027839">
        <ele>1.6</ele>
        <time>2019-04-20T10:08:41Z</time>
      </trkpt>
      <trkpt lat="51.217663484802" lon="4.467148860058">
        <ele>1.8</ele>
        <time>2019-04-20T10:08:48Z</time>
      </trkpt>
      <trkpt lat="51.217658874757" lon="4.467441723644">
        <ele>1.8</ele>
        <time>2019-04-20T10:08:55Z</time>
      </trkpt>
      <trkpt lat="51.217667508114" lon="4.467774401255">
        <ele>4.4</ele>
        <time>2019-04-20T10:09:02Z</time>
      </trkpt>
      <trkpt lat="51.217625598614" lon="4.468067181022">
        <ele>3.4</ele>
        <time>2019-04-20T10:09:09Z</time>
      </trkpt>
      <trkpt lat="51.217591819557" lon="4.468388626887">
        <ele>6</ele>
        <time>2019-04-20T10:09:16Z</time>
      </trkpt>
      <trkpt lat="51.217589640263" lon="4.468717365005">
        <ele>8.2</ele>
        <time>2019-04-20T10:09:23Z</time>
      </trkpt>
      <trkpt lat="51.217565835667" lon="4.469034955196">
        <ele>9</ele>
        <time>2019-04-20T10:09:30Z</time>
      </trkpt>
      <trkpt lat="51.217542282528" lon="4.469331087723">
        <ele>6.6</ele>
        <time>2019-04-20T10:09:37Z</time>
      </trkpt>
      <trkpt lat="51.217539684139" lon="4.469622610205">
        <ele>3.8</ele>
        <time>2019-04-20T10:09:45Z</time>
      </trkpt>
      <trkpt lat="51.217517975018" lon="4.470147233326">
        <ele>0</ele>
        <time>2019-04-20T10:09:59Z</time>
      </trkpt>
      <trkpt lat="51.217510850403" lon="4.470479072747">
        <ele>0</ele>
        <time>2019-04-20T10:10:08Z</time>
      </trkpt>
      <trkpt lat="51.217494505698" lon="4.470774534722">
        <ele>0</ele>
        <time>2019-04-20T10:10:16Z</time>
      </trkpt>
      <trkpt lat="51.217476903708" lon="4.471093046922">
        <ele>0</ele>
        <time>2019-04-20T10:10:24Z</time>
      </trkpt>
      <trkpt lat="51.217473886224" lon="4.47141005038">
        <ele>0.4</ele>
        <time>2019-04-20T10:10:32Z</time>
      </trkpt>
      <trkpt lat="51.217474640595" lon="4.47173107715">
        <ele>2.4</ele>
        <time>2019-04-20T10:10:40Z</time>
      </trkpt>
      <trkpt lat="51.21745913408" lon="4.472035423939">
        <ele>6.4</ele>
        <time>2019-04-20T10:10:47Z</time>
      </trkpt>
      <trkpt lat="51.217441783547" lon="4.472356785985">
        <ele>6.8</ele>
        <time>2019-04-20T10:10:55Z</time>
      </trkpt>
      <trkpt lat="51.217457038605" lon="4.472641938223">
        <ele>5.2</ele>
        <time>2019-04-20T10:11:02Z</time>
      </trkpt>
      <trkpt lat="51.217433653104" lon="4.472955253645">
        <ele>4.6</ele>
        <time>2019-04-20T10:11:10Z</time>
      </trkpt>
      <trkpt lat="51.217411692526" lon="4.47328005227">
        <ele>4.2</ele>
        <time>2019-04-20T10:11:18Z</time>
      </trkpt>
      <trkpt lat="51.217418481865" lon="4.473578028815">
        <ele>4.2</ele>
        <time>2019-04-20T10:11:25Z</time>
      </trkpt>
      <trkpt lat="51.217401215151" lon="4.473880028672">
        <ele>6.6</ele>
        <time>2019-04-20T10:11:32Z</time>
      </trkpt>
      <trkpt lat="51.217375566537" lon="4.474178340493">
        <ele>6.2</ele>
        <time>2019-04-20T10:11:39Z</time>
      </trkpt>
      <trkpt lat="51.217324604585" lon="4.474459469419">
        <ele>4</ele>
        <time>2019-04-20T10:11:47Z</time>
      </trkpt>
      <trkpt lat="51.217306080586" lon="4.474780160913">
        <ele>1.4</ele>
        <time>2019-04-20T10:11:56Z</time>
      </trkpt>
      <trkpt lat="51.217294178288" lon="4.475100852407">
        <ele>2.4</ele>
        <time>2019-04-20T10:12:04Z</time>
      </trkpt>
      <trkpt lat="51.217270876606" lon="4.475400253875">
        <ele>1.6</ele>
        <time>2019-04-20T10:12:12Z</time>
      </trkpt>
      <trkpt lat="51.217268194398" lon="4.475717927885">
        <ele>3.2</ele>
        <time>2019-04-20T10:12:20Z</time>
      </trkpt>
      <trkpt lat="51.217251430598" lon="4.476015820611">
        <ele>6.2</ele>
        <time>2019-04-20T10:12:28Z</time>
      </trkpt>
      <trkpt lat="51.217243635431" lon="4.476328130205">
        <ele>7.4</ele>
        <time>2019-04-20T10:12:36Z</time>
      </trkpt>
      <trkpt lat="51.21722947002" lon="4.476628369863">
        <ele>8.4</ele>
        <time>2019-04-20T10:12:44Z</time>
      </trkpt>
      <trkpt lat="51.217217400084" lon="4.476916288128">
        <ele>8.4</ele>
        <time>2019-04-20T10:12:51Z</time>
      </trkpt>
      <trkpt lat="51.217199965732" lon="4.477211331008">
        <ele>7</ele>
        <time>2019-04-20T10:12:58Z</time>
      </trkpt>
      <trkpt lat="51.217201306836" lon="4.477526909543">
        <ele>5.8</ele>
        <time>2019-04-20T10:13:05Z</time>
      </trkpt>
      <trkpt lat="51.217206587433" lon="4.477820862776">
        <ele>4.8</ele>
        <time>2019-04-20T10:13:12Z</time>
      </trkpt>
      <trkpt lat="51.217159648793" lon="4.478109954507">
        <ele>2.8</ele>
        <time>2019-04-20T10:13:20Z</time>
      </trkpt>
      <trkpt lat="51.217142884993" lon="4.478409104518">
        <ele>1.6</ele>
        <time>2019-04-20T10:13:28Z</time>
      </trkpt>
      <trkpt lat="51.217150344884" lon="4.478711020556">
        <ele>2.6</ele>
        <time>2019-04-20T10:13:35Z</time>
      </trkpt>
      <trkpt lat="51.217139448414" lon="4.479021067037">
        <ele>2.8</ele>
        <time>2019-04-20T10:13:42Z</time>
      </trkpt>
      <trkpt lat="51.217119750949" lon="4.47932256398">
        <ele>4.2</ele>
        <time>2019-04-20T10:13:49Z</time>
      </trkpt>
      <trkpt lat="51.217110279402" lon="4.479613918824">
        <ele>5.8</ele>
        <time>2019-04-20T10:13:56Z</time>
      </trkpt>
      <trkpt lat="51.2170886541" lon="4.479928156255">
        <ele>5.8</ele>
        <time>2019-04-20T10:14:04Z</time>
      </trkpt>
      <trkpt lat="51.217063005486" lon="4.480246500817">
        <ele>3.2</ele>
        <time>2019-04-20T10:14:12Z</time>
      </trkpt>
      <trkpt lat="51.217049845903" lon="4.480567695225">
        <ele>2.4</ele>
        <time>2019-04-20T10:14:20Z</time>
      </trkpt>
      <trkpt lat="51.217036853958" lon="4.480888638176">
        <ele>2.8</ele>
        <time>2019-04-20T10:14:28Z</time>
      </trkpt>
      <trkpt lat="51.217017994683" lon="4.481201283046">
        <ele>3.6</ele>
        <time>2019-04-20T10:14:36Z</time>
      </trkpt>
      <trkpt lat="51.216989663861" lon="4.48149263789">
        <ele>3.8</ele>
        <time>2019-04-20T10:14:44Z</time>
      </trkpt>
      <trkpt lat="51.217032830646" lon="4.481779215051">
        <ele>4</ele>
        <time>2019-04-20T10:14:51Z</time>
      </trkpt>
      <trkpt lat="51.217078092906" lon="4.482086663143">
        <ele>6.6</ele>
        <time>2019-04-20T10:14:59Z</time>
      </trkpt>
      <trkpt lat="51.217071722662" lon="4.482128488824">
        <ele>6.8</ele>
        <time>2019-04-20T10:15:00Z</time>
      </trkpt>
      <trkpt lat="51.217038027424" lon="4.482201998087">
        <ele>8</ele>
        <time>2019-04-20T10:15:02Z</time>
      </trkpt>
      <trkpt lat="51.216862594257" lon="4.482306101285">
        <ele>8.4</ele>
        <time>2019-04-20T10:15:09Z</time>
      </trkpt>
      <trkpt lat="51.216661596295" lon="4.482345831491">
        <ele>6.8</ele>
        <time>2019-04-20T10:15:17Z</time>
      </trkpt>
      <trkpt lat="51.216472752088" lon="4.48237609015">
        <ele>5.2</ele>
        <time>2019-04-20T10:15:24Z</time>
      </trkpt>
      <trkpt lat="51.216272592316" lon="4.482365026042">
        <ele>3</ele>
        <time>2019-04-20T10:15:31Z</time>
      </trkpt>
      <trkpt lat="51.216077210227" lon="4.482378269444">
        <ele>0.8</ele>
        <time>2019-04-20T10:15:38Z</time>
      </trkpt>
      <trkpt lat="51.215703042211" lon="4.482355638314">
        <ele>0</ele>
        <time>2019-04-20T10:15:52Z</time>
      </trkpt>
      <trkpt lat="51.215535907125" lon="4.482333258641">
        <ele>0.4</ele>
        <time>2019-04-20T10:15:59Z</time>
      </trkpt>
      <trkpt lat="51.215515958203" lon="4.482396793443">
        <ele>1.2</ele>
        <time>2019-04-20T10:16:01Z</time>
      </trkpt>
      <trkpt lat="51.21552710613" lon="4.482690159943">
        <ele>2.2</ele>
        <time>2019-04-20T10:16:08Z</time>
      </trkpt>
      <trkpt lat="51.215541858274" lon="4.482994171456">
        <ele>1.6</ele>
        <time>2019-04-20T10:16:15Z</time>
      </trkpt>
      <trkpt lat="51.215553173839" lon="4.483288292327">
        <ele>2.2</ele>
        <time>2019-04-20T10:16:22Z</time>
      </trkpt>
      <trkpt lat="51.215544289025" lon="4.483612755676">
        <ele>3</ele>
        <time>2019-04-20T10:16:30Z</time>
      </trkpt>
      <trkpt lat="51.215543618473" lon="4.483903104692">
        <ele>2</ele>
        <time>2019-04-20T10:16:37Z</time>
      </trkpt>
      <trkpt lat="51.215550826907" lon="4.484216084838">
        <ele>2.4</ele>
        <time>2019-04-20T10:16:45Z</time>
      </trkpt>
      <trkpt lat="51.21556566287" lon="4.484504506017">
        <ele>2.2</ele>
        <time>2019-04-20T10:16:52Z</time>
      </trkpt>
      <trkpt lat="51.215560885187" lon="4.484817150887">
        <ele>3.2</ele>
        <time>2019-04-20T10:17:00Z</time>
      </trkpt>
      <trkpt lat="51.215530626528" lon="4.485100878202">
        <ele>3.4</ele>
        <time>2019-04-20T10:17:08Z</time>
      </trkpt>
      <trkpt lat="51.215495925462" lon="4.485266756003">
        <ele>5.6</ele>
        <time>2019-04-20T10:17:13Z</time>
      </trkpt>
      <trkpt lat="51.215487627381" lon="4.485545454178">
        <ele>6.4</ele>
        <time>2019-04-20T10:17:21Z</time>
      </trkpt>
      <trkpt lat="51.215491566874" lon="4.485851393528">
        <ele>6.6</ele>
        <time>2019-04-20T10:17:29Z</time>
      </trkpt>
      <trkpt lat="51.215469438658" lon="4.48614794515">
        <ele>5.6</ele>
        <time>2019-04-20T10:17:37Z</time>
      </trkpt>
      <trkpt lat="51.21548603482" lon="4.486457069622">
        <ele>3.2</ele>
        <time>2019-04-20T10:17:45Z</time>
      </trkpt>
      <trkpt lat="51.215505229371" lon="4.486760829678">
        <ele>2.8</ele>
        <time>2019-04-20T10:17:53Z</time>
      </trkpt>
      <trkpt lat="51.215653002268" lon="4.486920421054">
        <ele>5.4</ele>
        <time>2019-04-20T10:18:01Z</time>
      </trkpt>
      <trkpt lat="51.215843522855" lon="4.487018908379">
        <ele>6.2</ele>
        <time>2019-04-20T10:18:09Z</time>
      </trkpt>
      <trkpt lat="51.216034294899" lon="4.487019327474">
        <ele>6</ele>
        <time>2019-04-20T10:18:17Z</time>
      </trkpt>
      <trkpt lat="51.216230263721" lon="4.486957217595">
        <ele>5</ele>
        <time>2019-04-20T10:18:25Z</time>
      </trkpt>
      <trkpt lat="51.21640720563" lon="4.486906004186">
        <ele>4.8</ele>
        <time>2019-04-20T10:18:32Z</time>
      </trkpt>
      <trkpt lat="51.21650778843" lon="4.486907680566">
        <ele>4.2</ele>
        <time>2019-04-20T10:18:36Z</time>
      </trkpt>
      <trkpt lat="51.216533437044" lon="4.48697020954">
        <ele>4</ele>
        <time>2019-04-20T10:18:38Z</time>
      </trkpt>
      <trkpt lat="51.216488761517" lon="4.487250165">
        <ele>4</ele>
        <time>2019-04-20T10:18:45Z</time>
      </trkpt>
      <trkpt lat="51.216441403782" lon="4.487544704966">
        <ele>3.4</ele>
        <time>2019-04-20T10:18:52Z</time>
      </trkpt>
      <trkpt lat="51.216403517594" lon="4.487831533584">
        <ele>3.8</ele>
        <time>2019-04-20T10:18:59Z</time>
      </trkpt>
      <trkpt lat="51.216499741806" lon="4.488092797407">
        <ele>3.6</ele>
        <time>2019-04-20T10:19:08Z</time>
      </trkpt>
      <trkpt lat="51.21668297014" lon="4.488132611432">
        <ele>3</ele>
        <time>2019-04-20T10:19:16Z</time>
      </trkpt>
      <trkpt lat="51.216884471016" lon="4.488140155142">
        <ele>1</ele>
        <time>2019-04-20T10:19:24Z</time>
      </trkpt>
      <trkpt lat="51.217084966064" lon="4.48816798305">
        <ele>2</ele>
        <time>2019-04-20T10:19:32Z</time>
      </trkpt>
      <trkpt lat="51.217185967959" lon="4.488269990773">
        <ele>4.4</ele>
        <time>2019-04-20T10:19:37Z</time>
      </trkpt>
      <trkpt lat="51.217208599089" lon="4.488587161869">
        <ele>5.2</ele>
        <time>2019-04-20T10:19:45Z</time>
      </trkpt>
      <trkpt lat="51.21727808504" lon="4.488878851989">
        <ele>5.2</ele>
        <time>2019-04-20T10:19:53Z</time>
      </trkpt>
      <trkpt lat="51.217328627897" lon="4.489183701692">
        <ele>5.4</ele>
        <time>2019-04-20T10:20:01Z</time>
      </trkpt>
      <trkpt lat="51.21737112413" lon="4.489499280227">
        <ele>6</ele>
        <time>2019-04-20T10:20:09Z</time>
      </trkpt>
      <trkpt lat="51.217406914843" lon="4.489812092735">
        <ele>6.4</ele>
        <time>2019-04-20T10:20:17Z</time>
      </trkpt>
      <trkpt lat="51.217434156018" lon="4.490100597733">
        <ele>6.4</ele>
        <time>2019-04-20T10:20:24Z</time>
      </trkpt>
      <trkpt lat="51.217457709157" lon="4.490419445209">
        <ele>6</ele>
        <time>2019-04-20T10:20:32Z</time>
      </trkpt>
      <trkpt lat="51.217477238984" lon="4.490735191382">
        <ele>5.4</ele>
        <time>2019-04-20T10:20:40Z</time>
      </trkpt>
      <trkpt lat="51.217504731616" lon="4.491021768543">
        <ele>6.2</ele>
        <time>2019-04-20T10:20:47Z</time>
      </trkpt>
      <trkpt lat="51.217515125172" lon="4.491309854446">
        <ele>5.8</ele>
        <time>2019-04-20T10:20:54Z</time>
      </trkpt>
      <trkpt lat="51.217505318349" lon="4.491634317795">
        <ele>4.8</ele>
        <time>2019-04-20T10:21:02Z</time>
      </trkpt>
      <trkpt lat="51.217527698022" lon="4.491952159443">
        <ele>4</ele>
        <time>2019-04-20T10:21:10Z</time>
      </trkpt>
      <trkpt lat="51.217550412971" lon="4.49224074826">
        <ele>2.6</ele>
        <time>2019-04-20T10:21:17Z</time>
      </trkpt>
      <trkpt lat="51.217579498164" lon="4.492561439754">
        <ele>3</ele>
        <time>2019-04-20T10:21:25Z</time>
      </trkpt>
      <trkpt lat="51.2176083319" lon="4.492875593366">
        <ele>2</ele>
        <time>2019-04-20T10:21:33Z</time>
      </trkpt>
      <trkpt lat="51.217609756823" lon="4.493197542145">
        <ele>2.2</ele>
        <time>2019-04-20T10:21:41Z</time>
      </trkpt>
      <trkpt lat="51.217662395155" lon="4.493644967967">
        <ele>2.8</ele>
        <time>2019-04-20T10:21:52Z</time>
      </trkpt>
      <trkpt lat="51.217686032113" lon="4.493942525417">
        <ele>3.6</ele>
        <time>2019-04-20T10:21:59Z</time>
      </trkpt>
      <trkpt lat="51.217738754264" lon="4.494245028188">
        <ele>4.4</ele>
        <time>2019-04-20T10:22:07Z</time>
      </trkpt>
      <trkpt lat="51.217835397571" lon="4.494492210419">
        <ele>6.4</ele>
        <time>2019-04-20T10:22:14Z</time>
      </trkpt>
      <trkpt lat="51.217923323702" lon="4.49474274541">
        <ele>7.2</ele>
        <time>2019-04-20T10:22:21Z</time>
      </trkpt>
      <trkpt lat="51.21802910328" lon="4.495012894047">
        <ele>5.8</ele>
        <time>2019-04-20T10:22:29Z</time>
      </trkpt>
      <trkpt lat="51.218051818229" lon="4.495048433303">
        <ele>4.6</ele>
        <time>2019-04-20T10:22:31Z</time>
      </trkpt>
      <trkpt lat="51.218234376011" lon="4.494942318449">
        <ele>1.6</ele>
        <time>2019-04-20T10:22:41Z</time>
      </trkpt>
      <trkpt lat="51.218403941848" lon="4.494787588575">
        <ele>0</ele>
        <time>2019-04-20T10:22:49Z</time>
      </trkpt>
      <trkpt lat="51.218565712518" lon="4.494615759625">
        <ele>0</ele>
        <time>2019-04-20T10:22:57Z</time>
      </trkpt>
      <trkpt lat="51.218753802354" lon="4.494503442165">
        <ele>0</ele>
        <time>2019-04-20T10:23:05Z</time>
      </trkpt>
      <trkpt lat="51.218943652389" lon="4.494391795257">
        <ele>0</ele>
        <time>2019-04-20T10:23:13Z</time>
      </trkpt>
      <trkpt lat="51.219113385864" lon="4.494259528875">
        <ele>0</ele>
        <time>2019-04-20T10:23:21Z</time>
      </trkpt>
      <trkpt lat="51.219271971412" lon="4.494116868937">
        <ele>0</ele>
        <time>2019-04-20T10:23:30Z</time>
      </trkpt>
      <trkpt lat="51.219449332416" lon="4.49397999251">
        <ele>0</ele>
        <time>2019-04-20T10:23:39Z</time>
      </trkpt>
      <trkpt lat="51.219607079774" lon="4.493804391705">
        <ele>0</ele>
        <time>2019-04-20T10:23:46Z</time>
      </trkpt>
      <trkpt lat="51.219780417466" lon="4.493641699026">
        <ele>0</ele>
        <time>2019-04-20T10:23:54Z</time>
      </trkpt>
      <trkpt lat="51.219938248643" lon="4.493497949441">
        <ele>0</ele>
        <time>2019-04-20T10:24:01Z</time>
      </trkpt>
      <trkpt lat="51.22011535819" lon="4.493348416345">
        <ele>0</ele>
        <time>2019-04-20T10:24:09Z</time>
      </trkpt>
      <trkpt lat="51.220280733077" lon="4.493194859937">
        <ele>0</ele>
        <time>2019-04-20T10:24:17Z</time>
      </trkpt>
      <trkpt lat="51.220442587566" lon="4.493022947168">
        <ele>0</ele>
        <time>2019-04-20T10:24:25Z</time>
      </trkpt>
      <trkpt lat="51.220606872806" lon="4.492852794598">
        <ele>0</ele>
        <time>2019-04-20T10:24:32Z</time>
      </trkpt>
      <trkpt lat="51.220789598226" lon="4.492717510732">
        <ele>0</ele>
        <time>2019-04-20T10:24:39Z</time>
      </trkpt>
      <trkpt lat="51.220955476027" lon="4.492560601564">
        <ele>0</ele>
        <time>2019-04-20T10:24:46Z</time>
      </trkpt>
      <trkpt lat="51.221119928905" lon="4.492411906658">
        <ele>0</ele>
        <time>2019-04-20T10:24:53Z</time>
      </trkpt>
      <trkpt lat="51.221286644896" lon="4.492258853164">
        <ele>0</ele>
        <time>2019-04-20T10:25:00Z</time>
      </trkpt>
      <trkpt lat="51.221432573775" lon="4.49208903587">
        <ele>0</ele>
        <time>2019-04-20T10:25:07Z</time>
      </trkpt>
      <trkpt lat="51.221609767141" lon="4.492108481878">
        <ele>0</ele>
        <time>2019-04-20T10:25:15Z</time>
      </trkpt>
      <trkpt lat="51.221688137906" lon="4.492397573609">
        <ele>1</ele>
        <time>2019-04-20T10:25:23Z</time>
      </trkpt>
      <trkpt lat="51.221734489813" lon="4.492683647856">
        <ele>3.2</ele>
        <time>2019-04-20T10:25:30Z</time>
      </trkpt>
      <trkpt lat="51.221800371547" lon="4.492960166737">
        <ele>5.2</ele>
        <time>2019-04-20T10:25:37Z</time>
      </trkpt>
      <trkpt lat="51.22185041149" lon="4.493239535464">
        <ele>6.4</ele>
        <time>2019-04-20T10:25:44Z</time>
      </trkpt>
      <trkpt lat="51.221895589931" lon="4.493522424589">
        <ele>7.8</ele>
        <time>2019-04-20T10:25:51Z</time>
      </trkpt>
      <trkpt lat="51.22194345058" lon="4.493830543233">
        <ele>8.4</ele>
        <time>2019-04-20T10:25:59Z</time>
      </trkpt>
      <trkpt lat="51.221992149419" lon="4.494114857281">
        <ele>6.8</ele>
        <time>2019-04-20T10:26:07Z</time>
      </trkpt>
      <trkpt lat="51.222049649253" lon="4.494399841881">
        <ele>6.8</ele>
        <time>2019-04-20T10:26:15Z</time>
      </trkpt>
      <trkpt lat="51.222109831295" lon="4.494694884761">
        <ele>7.4</ele>
        <time>2019-04-20T10:26:23Z</time>
      </trkpt>
      <trkpt lat="51.222177137952" lon="4.494988167442">
        <ele>8.6</ele>
        <time>2019-04-20T10:26:31Z</time>
      </trkpt>
      <trkpt lat="51.222243774057" lon="4.495290251118">
        <ele>9.4</ele>
        <time>2019-04-20T10:26:39Z</time>
      </trkpt>
      <trkpt lat="51.22230722504" lon="4.495591412785">
        <ele>9.2</ele>
        <time>2019-04-20T10:26:47Z</time>
      </trkpt>
      <trkpt lat="51.222356929707" lon="4.495895005203">
        <ele>9.6</ele>
        <time>2019-04-20T10:26:55Z</time>
      </trkpt>
      <trkpt lat="51.22239774956" lon="4.496178313423">
        <ele>9</ele>
        <time>2019-04-20T10:27:02Z</time>
      </trkpt>
      <trkpt lat="51.22244552639" lon="4.496457346874">
        <ele>8.4</ele>
        <time>2019-04-20T10:27:09Z</time>
      </trkpt>
      <trkpt lat="51.222510486115" lon="4.496728082244">
        <ele>8</ele>
        <time>2019-04-20T10:27:16Z</time>
      </trkpt>
      <trkpt lat="51.222578882419" lon="4.49700418203">
        <ele>10.8</ele>
        <time>2019-04-20T10:27:23Z</time>
      </trkpt>
      <trkpt lat="51.222654906252" lon="4.497283466938">
        <ele>11.4</ele>
        <time>2019-04-20T10:27:30Z</time>
      </trkpt>
      <trkpt lat="51.222715675027" lon="4.497555627231">
        <ele>11.4</ele>
        <time>2019-04-20T10:27:37Z</time>
      </trkpt>
      <trkpt lat="51.222828076306" lon="4.49808041799">
        <ele>12</ele>
        <time>2019-04-20T10:27:51Z</time>
      </trkpt>
      <trkpt lat="51.222885324683" lon="4.498393565774">
        <ele>13</ele>
        <time>2019-04-20T10:27:59Z</time>
      </trkpt>
      <trkpt lat="51.222953637168" lon="4.498659272004">
        <ele>12</ele>
        <time>2019-04-20T10:28:06Z</time>
      </trkpt>
      <trkpt lat="51.223004431482" lon="4.498956075083">
        <ele>14.4</ele>
        <time>2019-04-20T10:28:13Z</time>
      </trkpt>
      <trkpt lat="51.223070564673" lon="4.499227481005">
        <ele>16.4</ele>
        <time>2019-04-20T10:28:20Z</time>
      </trkpt>
      <trkpt lat="51.223145247402" lon="4.499520093134">
        <ele>17</ele>
        <time>2019-04-20T10:28:28Z</time>
      </trkpt>
      <trkpt lat="51.223209033661" lon="4.499828379416">
        <ele>17.8</ele>
        <time>2019-04-20T10:28:36Z</time>
      </trkpt>
      <trkpt lat="51.223266617314" lon="4.500135408413">
        <ele>17.2</ele>
        <time>2019-04-20T10:28:44Z</time>
      </trkpt>
      <trkpt lat="51.223332499048" lon="4.500413352217">
        <ele>18.8</ele>
        <time>2019-04-20T10:28:51Z</time>
      </trkpt>
      <trkpt lat="51.223394944203" lon="4.500694145867">
        <ele>19.8</ele>
        <time>2019-04-20T10:28:58Z</time>
      </trkpt>
      <trkpt lat="51.223456132073" lon="4.501003018882">
        <ele>18.4</ele>
        <time>2019-04-20T10:29:06Z</time>
      </trkpt>
      <trkpt lat="51.223497957754" lon="4.501308203861">
        <ele>15.6</ele>
        <time>2019-04-20T10:29:14Z</time>
      </trkpt>
      <trkpt lat="51.223536598313" lon="4.501613137383">
        <ele>11.4</ele>
        <time>2019-04-20T10:29:23Z</time>
      </trkpt>
      <trkpt lat="51.223598205278" lon="4.501896445603">
        <ele>8.4</ele>
        <time>2019-04-20T10:29:31Z</time>
      </trkpt>
      <trkpt lat="51.223644808642" lon="4.502190231198">
        <ele>8</ele>
        <time>2019-04-20T10:29:39Z</time>
      </trkpt>
      <trkpt lat="51.223698117526" lon="4.5024884592">
        <ele>7.8</ele>
        <time>2019-04-20T10:29:47Z</time>
      </trkpt>
      <trkpt lat="51.223752432238" lon="4.502791381066">
        <ele>8</ele>
        <time>2019-04-20T10:29:55Z</time>
      </trkpt>
      <trkpt lat="51.223814542117" lon="4.503094973484">
        <ele>7.6</ele>
        <time>2019-04-20T10:30:03Z</time>
      </trkpt>
      <trkpt lat="51.223875897625" lon="4.503383981396">
        <ele>8.8</ele>
        <time>2019-04-20T10:30:11Z</time>
      </trkpt>
      <trkpt lat="51.223933900373" lon="4.503673911317">
        <ele>8.8</ele>
        <time>2019-04-20T10:30:19Z</time>
      </trkpt>
      <trkpt lat="51.22399366332" lon="4.503963505962">
        <ele>7.8</ele>
        <time>2019-04-20T10:30:27Z</time>
      </trkpt>
      <trkpt lat="51.224043703263" lon="4.504261985421">
        <ele>8.8</ele>
        <time>2019-04-20T10:30:35Z</time>
      </trkpt>
      <trkpt lat="51.224100364907" lon="4.504568595323">
        <ele>9.6</ele>
        <time>2019-04-20T10:30:43Z</time>
      </trkpt>
      <trkpt lat="51.224169515582" lon="4.504855591579">
        <ele>10</ele>
        <time>2019-04-20T10:30:51Z</time>
      </trkpt>
      <trkpt lat="51.224234475307" lon="4.505123477103">
        <ele>11.8</ele>
        <time>2019-04-20T10:30:58Z</time>
      </trkpt>
      <trkpt lat="51.224291723684" lon="4.505402426735">
        <ele>12</ele>
        <time>2019-04-20T10:31:06Z</time>
      </trkpt>
      <trkpt lat="51.224304547991" lon="4.505534106384">
        <ele>12</ele>
        <time>2019-04-20T10:31:10Z</time>
      </trkpt>
      <trkpt lat="51.224319635411" lon="4.505526311217">
        <ele>12.4</ele>
        <time>2019-04-20T10:31:12Z</time>
      </trkpt>
      <trkpt lat="51.22429038258" lon="4.50549672311">
        <ele>8.4</ele>
        <time>2019-04-20T10:31:28Z</time>
      </trkpt>
      <trkpt lat="51.22431049914" lon="4.505636197926">
        <ele>8</ele>
        <time>2019-04-20T10:31:32Z</time>
      </trkpt>
      <trkpt lat="51.224365652042" lon="4.505914393187">
        <ele>7.6</ele>
        <time>2019-04-20T10:31:39Z</time>
      </trkpt>
      <trkpt lat="51.224416446356" lon="4.50619577357">
        <ele>6.4</ele>
        <time>2019-04-20T10:31:46Z</time>
      </trkpt>
      <trkpt lat="51.224464642281" lon="4.50650003654">
        <ele>4.6</ele>
        <time>2019-04-20T10:31:54Z</time>
      </trkpt>
      <trkpt lat="51.224523483219" lon="4.5067716101">
        <ele>7</ele>
        <time>2019-04-20T10:32:01Z</time>
      </trkpt>
      <trkpt lat="51.224588191487" lon="4.507072352672">
        <ele>10.4</ele>
        <time>2019-04-20T10:32:09Z</time>
      </trkpt>
      <trkpt lat="51.224653570307" lon="4.507345854069">
        <ele>12</ele>
        <time>2019-04-20T10:32:16Z</time>
      </trkpt>
      <trkpt lat="51.224720960783" lon="4.507644501166">
        <ele>12.8</ele>
        <time>2019-04-20T10:32:24Z</time>
      </trkpt>
      <trkpt lat="51.224775359314" lon="4.507939879322">
        <ele>13.4</ele>
        <time>2019-04-20T10:32:32Z</time>
      </trkpt>
      <trkpt lat="51.224838810297" lon="4.508238945514">
        <ele>12.6</ele>
        <time>2019-04-20T10:32:40Z</time>
      </trkpt>
      <trkpt lat="51.224898573244" lon="4.50851085435">
        <ele>11.2</ele>
        <time>2019-04-20T10:32:47Z</time>
      </trkpt>
      <trkpt lat="51.224963700607" lon="4.508782176453">
        <ele>12.2</ele>
        <time>2019-04-20T10:32:54Z</time>
      </trkpt>
      <trkpt lat="51.225037880422" lon="4.509058108601">
        <ele>12.2</ele>
        <time>2019-04-20T10:33:02Z</time>
      </trkpt>
      <trkpt lat="51.225071491841" lon="4.509353402938">
        <ele>10.6</ele>
        <time>2019-04-20T10:33:10Z</time>
      </trkpt>
      <trkpt lat="51.225123040526" lon="4.509661773039">
        <ele>9</ele>
        <time>2019-04-20T10:33:18Z</time>
      </trkpt>
      <trkpt lat="51.225185401862" lon="4.509971484244">
        <ele>7.6</ele>
        <time>2019-04-20T10:33:26Z</time>
      </trkpt>
      <trkpt lat="51.225243907524" lon="4.510263174364">
        <ele>6.4</ele>
        <time>2019-04-20T10:33:34Z</time>
      </trkpt>
      <trkpt lat="51.22532638542" lon="4.510546901679">
        <ele>4.8</ele>
        <time>2019-04-20T10:33:43Z</time>
      </trkpt>
      <trkpt lat="51.22539260243" lon="4.510830042261">
        <ele>6</ele>
        <time>2019-04-20T10:33:51Z</time>
      </trkpt>
      <trkpt lat="51.225462591295" lon="4.511125588055">
        <ele>7</ele>
        <time>2019-04-20T10:33:59Z</time>
      </trkpt>
      <trkpt lat="51.225578429153" lon="4.511607714943">
        <ele>9.8</ele>
        <time>2019-04-20T10:34:12Z</time>
      </trkpt>
      <trkpt lat="51.225652273692" lon="4.51187451082">
        <ele>9.8</ele>
        <time>2019-04-20T10:34:19Z</time>
      </trkpt>
      <trkpt lat="51.225740032185" lon="4.512165698026">
        <ele>8.6</ele>
        <time>2019-04-20T10:34:27Z</time>
      </trkpt>
      <trkpt lat="51.225826198117" lon="4.512449425341">
        <ele>10</ele>
        <time>2019-04-20T10:34:35Z</time>
      </trkpt>
      <trkpt lat="51.225906329081" lon="4.512724267842">
        <ele>13.8</ele>
        <time>2019-04-20T10:34:43Z</time>
      </trkpt>
      <trkpt lat="51.225985118941" lon="4.513019813636">
        <ele>19.2</ele>
        <time>2019-04-20T10:34:51Z</time>
      </trkpt>
      <trkpt lat="51.22607153633" lon="4.513272108826">
        <ele>23.2</ele>
        <time>2019-04-20T10:34:58Z</time>
      </trkpt>
      <trkpt lat="51.226126437775" lon="4.513557847797">
        <ele>27</ele>
        <time>2019-04-20T10:35:05Z</time>
      </trkpt>
      <trkpt lat="51.226175052795" lon="4.513859847654">
        <ele>26.2</ele>
        <time>2019-04-20T10:35:13Z</time>
      </trkpt>
      <trkpt lat="51.226226852937" lon="4.514174085085">
        <ele>22.4</ele>
        <time>2019-04-20T10:35:21Z</time>
      </trkpt>
      <trkpt lat="51.226287956988" lon="4.514456387477">
        <ele>19.2</ele>
        <time>2019-04-20T10:35:28Z</time>
      </trkpt>
      <trkpt lat="51.226348390487" lon="4.514732151987">
        <ele>16</ele>
        <time>2019-04-20T10:35:35Z</time>
      </trkpt>
      <trkpt lat="51.226394993851" lon="4.515031050541">
        <ele>12</ele>
        <time>2019-04-20T10:35:43Z</time>
      </trkpt>
      <trkpt lat="51.226463306336" lon="4.515335984063">
        <ele>10.6</ele>
        <time>2019-04-20T10:35:51Z</time>
      </trkpt>
      <trkpt lat="51.226526338224" lon="4.515641671956">
        <ele>8.8</ele>
        <time>2019-04-20T10:35:59Z</time>
      </trkpt>
      <trkpt lat="51.226599009297" lon="4.515939480863">
        <ele>10.8</ele>
        <time>2019-04-20T10:36:07Z</time>
      </trkpt>
      <trkpt lat="51.226645445023" lon="4.516227147671">
        <ele>14.4</ele>
        <time>2019-04-20T10:36:14Z</time>
      </trkpt>
      <trkpt lat="51.226722726141" lon="4.516525962406">
        <ele>20.4</ele>
        <time>2019-04-20T10:36:22Z</time>
      </trkpt>
      <trkpt lat="51.226791122445" lon="4.516802900382">
        <ele>25</ele>
        <time>2019-04-20T10:36:29Z</time>
      </trkpt>
      <trkpt lat="51.226858848197" lon="4.51709308176">
        <ele>29.6</ele>
        <time>2019-04-20T10:36:36Z</time>
      </trkpt>
      <trkpt lat="51.226898913679" lon="4.517389046649">
        <ele>30.8</ele>
        <time>2019-04-20T10:36:43Z</time>
      </trkpt>
      <trkpt lat="51.226943337749" lon="4.517701691519">
        <ele>31.4</ele>
        <time>2019-04-20T10:36:51Z</time>
      </trkpt>
      <trkpt lat="51.226966555612" lon="4.518020622814">
        <ele>30.4</ele>
        <time>2019-04-20T10:36:59Z</time>
      </trkpt>
      <trkpt lat="51.226989102923" lon="4.518334776426">
        <ele>27.4</ele>
        <time>2019-04-20T10:37:08Z</time>
      </trkpt>
      <trkpt lat="51.22699103076" lon="4.518665945295">
        <ele>23.6</ele>
        <time>2019-04-20T10:37:17Z</time>
      </trkpt>
      <trkpt lat="51.227033443174" lon="4.518957048682">
        <ele>22.2</ele>
        <time>2019-04-20T10:37:25Z</time>
      </trkpt>
      <trkpt lat="51.227090272456" lon="4.519256282512">
        <ele>21.8</ele>
        <time>2019-04-20T10:37:33Z</time>
      </trkpt>
      <trkpt lat="51.227149783946" lon="4.519563562966">
        <ele>25.6</ele>
        <time>2019-04-20T10:37:41Z</time>
      </trkpt>
      <trkpt lat="51.227200159165" lon="4.519874615275">
        <ele>28.6</ele>
        <time>2019-04-20T10:37:49Z</time>
      </trkpt>
      <trkpt lat="51.227261179397" lon="4.520183404471">
        <ele>30.2</ele>
        <time>2019-04-20T10:37:57Z</time>
      </trkpt>
      <trkpt lat="51.227303507992" lon="4.52046679651">
        <ele>31.2</ele>
        <time>2019-04-20T10:38:04Z</time>
      </trkpt>
      <trkpt lat="51.22733636504" lon="4.520781201579">
        <ele>30.2</ele>
        <time>2019-04-20T10:38:12Z</time>
      </trkpt>
      <trkpt lat="51.227382800766" lon="4.521103904729">
        <ele>26.8</ele>
        <time>2019-04-20T10:38:20Z</time>
      </trkpt>
      <trkpt lat="51.227426973379" lon="4.521397438867">
        <ele>31</ele>
        <time>2019-04-20T10:38:27Z</time>
      </trkpt>
      <trkpt lat="51.227470643078" lon="4.521682926381">
        <ele>29.8</ele>
        <time>2019-04-20T10:38:34Z</time>
      </trkpt>
      <trkpt lat="51.227521772668" lon="4.521959948176">
        <ele>30.2</ele>
        <time>2019-04-20T10:38:41Z</time>
      </trkpt>
      <trkpt lat="51.227585223651" lon="4.522271838675">
        <ele>31.2</ele>
        <time>2019-04-20T10:38:49Z</time>
      </trkpt>
      <trkpt lat="51.227619757079" lon="4.52255891875">
        <ele>32.2</ele>
        <time>2019-04-20T10:38:56Z</time>
      </trkpt>
      <trkpt lat="51.227648087901" lon="4.52286150534">
        <ele>32.8</ele>
        <time>2019-04-20T10:39:03Z</time>
      </trkpt>
      <trkpt lat="51.22760123308" lon="4.52310541863">
        <ele>33.2</ele>
        <time>2019-04-20T10:39:09Z</time>
      </trkpt>
      <trkpt lat="51.227599640519" lon="4.52341303436">
        <ele>28.2</ele>
        <time>2019-04-20T10:39:17Z</time>
      </trkpt>
      <trkpt lat="51.227613470654" lon="4.523719895719">
        <ele>20.2</ele>
        <time>2019-04-20T10:39:25Z</time>
      </trkpt>
      <trkpt lat="51.227686644641" lon="4.523984428483">
        <ele>11.4</ele>
        <time>2019-04-20T10:39:33Z</time>
      </trkpt>
      <trkpt lat="51.227750347081" lon="4.524258265156">
        <ele>4.8</ele>
        <time>2019-04-20T10:39:41Z</time>
      </trkpt>
      <trkpt lat="51.227832322063" lon="4.524549117086">
        <ele>4.8</ele>
        <time>2019-04-20T10:39:49Z</time>
      </trkpt>
      <trkpt lat="51.227902646204" lon="4.52482789908">
        <ele>6</ele>
        <time>2019-04-20T10:39:56Z</time>
      </trkpt>
      <trkpt lat="51.227974143811" lon="4.525291837245">
        <ele>9.4</ele>
        <time>2019-04-20T10:40:07Z</time>
      </trkpt>
      <trkpt lat="51.228010688895" lon="4.525588640324">
        <ele>12.2</ele>
        <time>2019-04-20T10:40:14Z</time>
      </trkpt>
      <trkpt lat="51.228047904531" lon="4.525892651837">
        <ele>14.2</ele>
        <time>2019-04-20T10:40:21Z</time>
      </trkpt>
      <trkpt lat="51.22811588174" lon="4.526194400237">
        <ele>14</ele>
        <time>2019-04-20T10:40:29Z</time>
      </trkpt>
      <trkpt lat="51.228167430425" lon="4.526486928547">
        <ele>14</ele>
        <time>2019-04-20T10:40:36Z</time>
      </trkpt>
      <trkpt lat="51.228215374893" lon="4.526794041363">
        <ele>15</ele>
        <time>2019-04-20T10:40:44Z</time>
      </trkpt>
      <trkpt lat="51.228239011851" lon="4.527094448659">
        <ele>13.2</ele>
        <time>2019-04-20T10:40:51Z</time>
      </trkpt>
      <trkpt lat="51.228278909695" lon="4.527380690544">
        <ele>11.2</ele>
        <time>2019-04-20T10:40:58Z</time>
      </trkpt>
      <trkpt lat="51.228347138361" lon="4.527654946312">
        <ele>9.2</ele>
        <time>2019-04-20T10:41:05Z</time>
      </trkpt>
      <trkpt lat="51.228366165274" lon="4.527943283672">
        <ele>8</ele>
        <time>2019-04-20T10:41:12Z</time>
      </trkpt>
      <trkpt lat="51.228359878849" lon="4.52825358161">
        <ele>8.2</ele>
        <time>2019-04-20T10:41:19Z</time>
      </trkpt>
      <trkpt lat="51.228356945184" lon="4.52855952096">
        <ele>7.2</ele>
        <time>2019-04-20T10:41:26Z</time>
      </trkpt>
      <trkpt lat="51.228374630993" lon="4.528850289071">
        <ele>7.6</ele>
        <time>2019-04-20T10:41:33Z</time>
      </trkpt>
      <trkpt lat="51.228381336513" lon="4.529173662773">
        <ele>10.2</ele>
        <time>2019-04-20T10:41:41Z</time>
      </trkpt>
      <trkpt lat="51.228365913817" lon="4.529475411173">
        <ele>9.8</ele>
        <time>2019-04-20T10:41:48Z</time>
      </trkpt>
      <trkpt lat="51.228357112822" lon="4.529768610035">
        <ele>11</ele>
        <time>2019-04-20T10:41:55Z</time>
      </trkpt>
      <trkpt lat="51.228347054542" lon="4.530074800842">
        <ele>12.4</ele>
        <time>2019-04-20T10:42:03Z</time>
      </trkpt>
      <trkpt lat="51.228326937982" lon="4.530366155686">
        <ele>14</ele>
        <time>2019-04-20T10:42:11Z</time>
      </trkpt>
      <trkpt lat="51.228246304104" lon="4.530666311525">
        <ele>11.2</ele>
        <time>2019-04-20T10:42:19Z</time>
      </trkpt>
      <trkpt lat="51.228146978589" lon="4.530854149904">
        <ele>9</ele>
        <time>2019-04-20T10:42:25Z</time>
      </trkpt>
      <trkpt lat="51.228116049378" lon="4.530983314983">
        <ele>7</ele>
        <time>2019-04-20T10:42:29Z</time>
      </trkpt>
      <trkpt lat="51.227957296192" lon="4.531136033201">
        <ele>3</ele>
        <time>2019-04-20T10:42:38Z</time>
      </trkpt>
      <trkpt lat="51.227986129928" lon="4.53123586163">
        <ele>2.2</ele>
        <time>2019-04-20T10:42:42Z</time>
      </trkpt>
      <trkpt lat="51.227893342295" lon="4.531519588945">
        <ele>2</ele>
        <time>2019-04-20T10:42:50Z</time>
      </trkpt>
      <trkpt lat="51.227836429194" lon="4.531809351228">
        <ele>2.8</ele>
        <time>2019-04-20T10:43:00Z</time>
      </trkpt>
      <trkpt lat="51.227759483352" lon="4.532096096027">
        <ele>5.6</ele>
        <time>2019-04-20T10:43:10Z</time>
      </trkpt>
      <trkpt lat="51.227710365418" lon="4.532401616282">
        <ele>8</ele>
        <time>2019-04-20T10:43:19Z</time>
      </trkpt>
      <trkpt lat="51.227679436207" lon="4.532684086312">
        <ele>10.8</ele>
        <time>2019-04-20T10:43:27Z</time>
      </trkpt>
      <trkpt lat="51.227686812279" lon="4.53300444253">
        <ele>12.8</ele>
        <time>2019-04-20T10:43:36Z</time>
      </trkpt>
      <trkpt lat="51.227721178069" lon="4.533319434332">
        <ele>13.6</ele>
        <time>2019-04-20T10:43:44Z</time>
      </trkpt>
      <trkpt lat="51.227782785034" lon="4.533608861339">
        <ele>15.6</ele>
        <time>2019-04-20T10:43:52Z</time>
      </trkpt>
      <trkpt lat="51.227865346749" lon="4.533884290573">
        <ele>16.6</ele>
        <time>2019-04-20T10:44:01Z</time>
      </trkpt>
      <trkpt lat="51.22797841858" lon="4.534121917438">
        <ele>18.2</ele>
        <time>2019-04-20T10:44:09Z</time>
      </trkpt>
      <trkpt lat="51.228114875912" lon="4.534367171832">
        <ele>17.2</ele>
        <time>2019-04-20T10:44:17Z</time>
      </trkpt>
      <trkpt lat="51.228258541678" lon="4.534552328003">
        <ele>16.8</ele>
        <time>2019-04-20T10:44:24Z</time>
      </trkpt>
      <trkpt lat="51.22842601204" lon="4.534704878583">
        <ele>16.8</ele>
        <time>2019-04-20T10:44:32Z</time>
      </trkpt>
      <trkpt lat="51.228579484629" lon="4.534896488817">
        <ele>16</ele>
        <time>2019-04-20T10:44:40Z</time>
      </trkpt>
      <trkpt lat="51.228654586453" lon="4.53519547119">
        <ele>14</ele>
        <time>2019-04-20T10:44:48Z</time>
      </trkpt>
      <trkpt lat="51.228658274489" lon="4.535499063608">
        <ele>13.6</ele>
        <time>2019-04-20T10:44:55Z</time>
      </trkpt>
      <trkpt lat="51.228603289225" lon="4.535792430108">
        <ele>13.6</ele>
        <time>2019-04-20T10:45:02Z</time>
      </trkpt>
      <trkpt lat="51.22855593149" lon="4.536088814092">
        <ele>14</ele>
        <time>2019-04-20T10:45:09Z</time>
      </trkpt>
      <trkpt lat="51.228512932343" lon="4.536370781208">
        <ele>11.6</ele>
        <time>2019-04-20T10:45:16Z</time>
      </trkpt>
      <trkpt lat="51.228457444165" lon="4.536686275924">
        <ele>7.2</ele>
        <time>2019-04-20T10:45:24Z</time>
      </trkpt>
      <trkpt lat="51.228406482213" lon="4.536962710986">
        <ele>4.6</ele>
        <time>2019-04-20T10:45:31Z</time>
      </trkpt>
      <trkpt lat="51.228355855537" lon="4.537244594283">
        <ele>3.2</ele>
        <time>2019-04-20T10:45:38Z</time>
      </trkpt>
      <trkpt lat="51.228303552481" lon="4.537559083171">
        <ele>4</ele>
        <time>2019-04-20T10:45:46Z</time>
      </trkpt>
      <trkpt lat="51.228264576646" lon="4.537838535717">
        <ele>4.8</ele>
        <time>2019-04-20T10:45:53Z</time>
      </trkpt>
      <trkpt lat="51.228170028814" lon="4.538436416644">
        <ele>8.6</ele>
        <time>2019-04-20T10:46:07Z</time>
      </trkpt>
      <trkpt lat="51.228134908653" lon="4.538737745949">
        <ele>9.4</ele>
        <time>2019-04-20T10:46:15Z</time>
      </trkpt>
      <trkpt lat="51.228115462645" lon="4.539048379163">
        <ele>7.8</ele>
        <time>2019-04-20T10:46:23Z</time>
      </trkpt>
      <trkpt lat="51.228110098229" lon="4.539364712069">
        <ele>6.8</ele>
        <time>2019-04-20T10:46:31Z</time>
      </trkpt>
      <trkpt lat="51.228090568402" lon="4.539669058858">
        <ele>7</ele>
        <time>2019-04-20T10:46:39Z</time>
      </trkpt>
      <trkpt lat="51.228086880366" lon="4.539981284633">
        <ele>9</ele>
        <time>2019-04-20T10:46:47Z</time>
      </trkpt>
      <trkpt lat="51.228084952529" lon="4.540267442699">
        <ele>9</ele>
        <time>2019-04-20T10:46:54Z</time>
      </trkpt>
      <trkpt lat="51.228078582285" lon="4.540577237723">
        <ele>7.2</ele>
        <time>2019-04-20T10:47:02Z</time>
      </trkpt>
      <trkpt lat="51.228077408819" lon="4.540899521778">
        <ele>7</ele>
        <time>2019-04-20T10:47:10Z</time>
      </trkpt>
      <trkpt lat="51.228066931444" lon="4.54119774978">
        <ele>6.6</ele>
        <time>2019-04-20T10:47:18Z</time>
      </trkpt>
      <trkpt lat="51.228069026919" lon="4.541518441274">
        <ele>6.6</ele>
        <time>2019-04-20T10:47:26Z</time>
      </trkpt>
      <trkpt lat="51.228109260039" lon="4.541833265438">
        <ele>5.2</ele>
        <time>2019-04-20T10:47:34Z</time>
      </trkpt>
      <trkpt lat="51.228179248904" lon="4.542097630564">
        <ele>6</ele>
        <time>2019-04-20T10:47:42Z</time>
      </trkpt>
      <trkpt lat="51.228297266056" lon="4.542350847763">
        <ele>9</ele>
        <time>2019-04-20T10:47:50Z</time>
      </trkpt>
      <trkpt lat="51.22846037783" lon="4.542558048331">
        <ele>16.2</ele>
        <time>2019-04-20T10:47:57Z</time>
      </trkpt>
      <trkpt lat="51.228516033646" lon="4.542873626866">
        <ele>20.4</ele>
        <time>2019-04-20T10:48:05Z</time>
      </trkpt>
      <trkpt lat="51.228538161862" lon="4.543174956171">
        <ele>14.8</ele>
        <time>2019-04-20T10:48:13Z</time>
      </trkpt>
      <trkpt lat="51.228565235399" lon="4.543500676805">
        <ele>9</ele>
        <time>2019-04-20T10:48:22Z</time>
      </trkpt>
      <trkpt lat="51.228630865676" lon="4.543787337785">
        <ele>6</ele>
        <time>2019-04-20T10:48:30Z</time>
      </trkpt>
      <trkpt lat="51.228720635825" lon="4.544069472539">
        <ele>5.4</ele>
        <time>2019-04-20T10:48:38Z</time>
      </trkpt>
      <trkpt lat="51.228801102065" lon="4.54437029893">
        <ele>3.8</ele>
        <time>2019-04-20T10:48:46Z</time>
      </trkpt>
      <trkpt lat="51.228871845301" lon="4.544671544416">
        <ele>2.4</ele>
        <time>2019-04-20T10:48:54Z</time>
      </trkpt>
      <trkpt lat="51.228971422273" lon="4.54494697365">
        <ele>1.8</ele>
        <time>2019-04-20T10:49:02Z</time>
      </trkpt>
      <trkpt lat="51.229055325092" lon="4.545219636857">
        <ele>4.4</ele>
        <time>2019-04-20T10:49:10Z</time>
      </trkpt>
      <trkpt lat="51.229139227911" lon="4.545500514326">
        <ele>6.6</ele>
        <time>2019-04-20T10:49:18Z</time>
      </trkpt>
      <trkpt lat="51.229225561481" lon="4.545772506981">
        <ele>10.2</ele>
        <time>2019-04-20T10:49:26Z</time>
      </trkpt>
      <trkpt lat="51.229306279178" lon="4.546035614822">
        <ele>11.8</ele>
        <time>2019-04-20T10:49:33Z</time>
      </trkpt>
      <trkpt lat="51.229402671028" lon="4.546310960237">
        <ele>11.6</ele>
        <time>2019-04-20T10:49:41Z</time>
      </trkpt>
      <trkpt lat="51.229483221087" lon="4.546600638701">
        <ele>13.4</ele>
        <time>2019-04-20T10:49:49Z</time>
      </trkpt>
      <trkpt lat="51.229564860793" lon="4.546863997999">
        <ele>14.8</ele>
        <time>2019-04-20T10:49:56Z</time>
      </trkpt>
      <trkpt lat="51.229636693676" lon="4.547164572933">
        <ele>12.8</ele>
        <time>2019-04-20T10:50:04Z</time>
      </trkpt>
      <trkpt lat="51.22969084075" lon="4.547461711288">
        <ele>8.8</ele>
        <time>2019-04-20T10:50:12Z</time>
      </trkpt>
      <trkpt lat="51.229754291733" lon="4.547744181318">
        <ele>4.2</ele>
        <time>2019-04-20T10:50:20Z</time>
      </trkpt>
      <trkpt lat="51.229847330823" lon="4.548039308017">
        <ele>3.6</ele>
        <time>2019-04-20T10:50:29Z</time>
      </trkpt>
      <trkpt lat="51.229942130112" lon="4.548293531044">
        <ele>4.2</ele>
        <time>2019-04-20T10:50:36Z</time>
      </trkpt>
      <trkpt lat="51.230016226108" lon="4.548580024386">
        <ele>3.4</ele>
        <time>2019-04-20T10:50:44Z</time>
      </trkpt>
      <trkpt lat="51.230105912438" lon="4.548861907683">
        <ele>1.6</ele>
        <time>2019-04-20T10:50:52Z</time>
      </trkpt>
      <trkpt lat="51.230180008434" lon="4.549129457931">
        <ele>2.6</ele>
        <time>2019-04-20T10:50:59Z</time>
      </trkpt>
      <trkpt lat="51.230258463018" lon="4.5494187173">
        <ele>2.6</ele>
        <time>2019-04-20T10:51:07Z</time>
      </trkpt>
      <trkpt lat="51.230340521819" lon="4.549714514551">
        <ele>4.2</ele>
        <time>2019-04-20T10:51:15Z</time>
      </trkpt>
      <trkpt lat="51.230424508457" lon="4.549999666789">
        <ele>7.2</ele>
        <time>2019-04-20T10:51:23Z</time>
      </trkpt>
      <trkpt lat="51.230507992181" lon="4.550281298629">
        <ele>7.6</ele>
        <time>2019-04-20T10:51:31Z</time>
      </trkpt>
      <trkpt lat="51.230576304666" lon="4.55055781751">
        <ele>9.4</ele>
        <time>2019-04-20T10:51:39Z</time>
      </trkpt>
      <trkpt lat="51.230644114237" lon="4.550842969748">
        <ele>8.6</ele>
        <time>2019-04-20T10:51:47Z</time>
      </trkpt>
      <trkpt lat="51.230719216061" lon="4.551124350131">
        <ele>8</ele>
        <time>2019-04-20T10:51:55Z</time>
      </trkpt>
      <trkpt lat="51.23080060431" lon="4.55142450597">
        <ele>5.6</ele>
        <time>2019-04-20T10:52:03Z</time>
      </trkpt>
      <trkpt lat="51.230892050839" lon="4.551750980975">
        <ele>4.2</ele>
        <time>2019-04-20T10:52:12Z</time>
      </trkpt>
      <trkpt lat="51.230969751052" lon="4.552022386897">
        <ele>1.2</ele>
        <time>2019-04-20T10:52:19Z</time>
      </trkpt>
      <trkpt lat="51.231048960007" lon="4.552302845271">
        <ele>2</ele>
        <time>2019-04-20T10:52:26Z</time>
      </trkpt>
      <trkpt lat="51.231137389052" lon="4.552575676116">
        <ele>3.6</ele>
        <time>2019-04-20T10:52:33Z</time>
      </trkpt>
      <trkpt lat="51.23121718474" lon="4.552836520844">
        <ele>5</ele>
        <time>2019-04-20T10:52:40Z</time>
      </trkpt>
      <trkpt lat="51.231264458656" lon="4.55312267891">
        <ele>7.2</ele>
        <time>2019-04-20T10:52:48Z</time>
      </trkpt>
      <trkpt lat="51.231279126981" lon="4.553187135721">
        <ele>7.4</ele>
        <time>2019-04-20T10:52:50Z</time>
      </trkpt>
      <trkpt lat="51.231395467753" lon="4.553402299094">
        <ele>8.6</ele>
        <time>2019-04-20T10:52:58Z</time>
      </trkpt>
      <trkpt lat="51.23149211106" lon="4.553666161306">
        <ele>10</ele>
        <time>2019-04-20T10:53:05Z</time>
      </trkpt>
      <trkpt lat="51.23157090092" lon="4.553950307716">
        <ele>9.6</ele>
        <time>2019-04-20T10:53:12Z</time>
      </trkpt>
      <trkpt lat="51.231638459034" lon="4.55424250075">
        <ele>8.6</ele>
        <time>2019-04-20T10:53:20Z</time>
      </trkpt>
      <trkpt lat="51.231711130107" lon="4.554504183668">
        <ele>6.8</ele>
        <time>2019-04-20T10:53:28Z</time>
      </trkpt>
      <trkpt lat="51.231800900256" lon="4.554794113589">
        <ele>6</ele>
        <time>2019-04-20T10:53:36Z</time>
      </trkpt>
      <trkpt lat="51.231893939346" lon="4.555079182008">
        <ele>4.8</ele>
        <time>2019-04-20T10:53:44Z</time>
      </trkpt>
      <trkpt lat="51.231977087794" lon="4.5553782482">
        <ele>3.4</ele>
        <time>2019-04-20T10:53:52Z</time>
      </trkpt>
      <trkpt lat="51.232053530722" lon="4.555658874212">
        <ele>2.2</ele>
        <time>2019-04-20T10:54:00Z</time>
      </trkpt>
      <trkpt lat="51.232111617289" lon="4.555944361726">
        <ele>3</ele>
        <time>2019-04-20T10:54:08Z</time>
      </trkpt>
      <trkpt lat="51.232200800705" lon="4.556227921403">
        <ele>5.2</ele>
        <time>2019-04-20T10:54:16Z</time>
      </trkpt>
      <trkpt lat="51.232284703524" lon="4.556489269045">
        <ele>5.4</ele>
        <time>2019-04-20T10:54:23Z</time>
      </trkpt>
      <trkpt lat="51.232361817004" lon="4.556776181482">
        <ele>3.6</ele>
        <time>2019-04-20T10:54:31Z</time>
      </trkpt>
      <trkpt lat="51.232441445054" lon="4.557074828579">
        <ele>4.6</ele>
        <time>2019-04-20T10:54:39Z</time>
      </trkpt>
      <trkpt lat="51.232520486371" lon="4.557372218391">
        <ele>4.8</ele>
        <time>2019-04-20T10:54:47Z</time>
      </trkpt>
      <trkpt lat="51.232617464954" lon="4.557660974846">
        <ele>6.2</ele>
        <time>2019-04-20T10:54:55Z</time>
      </trkpt>
      <trkpt lat="51.232704720533" lon="4.557913270036">
        <ele>7.8</ele>
        <time>2019-04-20T10:55:02Z</time>
      </trkpt>
      <trkpt lat="51.232792395207" lon="4.558163469751">
        <ele>10.2</ele>
        <time>2019-04-20T10:55:09Z</time>
      </trkpt>
      <trkpt lat="51.232888954695" lon="4.558424398298">
        <ele>12.4</ele>
        <time>2019-04-20T10:55:16Z</time>
      </trkpt>
      <trkpt lat="51.232958524465" lon="4.558721536653">
        <ele>11.4</ele>
        <time>2019-04-20T10:55:24Z</time>
      </trkpt>
      <trkpt lat="51.233018119774" lon="4.559028733288">
        <ele>8.8</ele>
        <time>2019-04-20T10:55:32Z</time>
      </trkpt>
      <trkpt lat="51.233102441688" lon="4.559298881925">
        <ele>6.6</ele>
        <time>2019-04-20T10:55:40Z</time>
      </trkpt>
      <trkpt lat="51.233163126644" lon="4.559568862924">
        <ele>4.4</ele>
        <time>2019-04-20T10:55:47Z</time>
      </trkpt>
      <trkpt lat="51.233230600939" lon="4.559865498365">
        <ele>1.6</ele>
        <time>2019-04-20T10:55:55Z</time>
      </trkpt>
      <trkpt lat="51.233317605061" lon="4.560123493247">
        <ele>1</ele>
        <time>2019-04-20T10:56:02Z</time>
      </trkpt>
      <trkpt lat="51.233332524843" lon="4.560445525845">
        <ele>1.4</ele>
        <time>2019-04-20T10:56:10Z</time>
      </trkpt>
      <trkpt lat="51.233325651685" lon="4.560745597865">
        <ele>3.2</ele>
        <time>2019-04-20T10:56:18Z</time>
      </trkpt>
      <trkpt lat="51.233182405014" lon="4.560929496751">
        <ele>2.6</ele>
        <time>2019-04-20T10:56:25Z</time>
      </trkpt>
      <trkpt lat="51.233006468933" lon="4.561058913287">
        <ele>0.8</ele>
        <time>2019-04-20T10:56:33Z</time>
      </trkpt>
      <trkpt lat="51.232843357159" lon="4.561188329823">
        <ele>0</ele>
        <time>2019-04-20T10:56:40Z</time>
      </trkpt>
      <trkpt lat="51.232674294236" lon="4.561323446051">
        <ele>0</ele>
        <time>2019-04-20T10:56:47Z</time>
      </trkpt>
      <trkpt lat="51.232509506082" lon="4.561447330533">
        <ele>0</ele>
        <time>2019-04-20T10:56:54Z</time>
      </trkpt>
      <trkpt lat="51.232343041548" lon="4.561563336029">
        <ele>0</ele>
        <time>2019-04-20T10:57:01Z</time>
      </trkpt>
      <trkpt lat="51.23216601582" lon="4.561622847519">
        <ele>0</ele>
        <time>2019-04-20T10:57:08Z</time>
      </trkpt>
      <trkpt lat="51.23198831954" lon="4.561737679549">
        <ele>0</ele>
        <time>2019-04-20T10:57:16Z</time>
      </trkpt>
      <trkpt lat="51.231798385686" lon="4.561824432214">
        <ele>0</ele>
        <time>2019-04-20T10:57:24Z</time>
      </trkpt>
      <trkpt lat="51.231616079361" lon="4.561889978672">
        <ele>0</ele>
        <time>2019-04-20T10:57:32Z</time>
      </trkpt>
      <trkpt lat="51.231447267895" lon="4.561818313427">
        <ele>0</ele>
        <time>2019-04-20T10:57:40Z</time>
      </trkpt>
      <trkpt lat="51.231638710491" lon="4.561856031977">
        <ele>0</ele>
        <time>2019-04-20T10:57:50Z</time>
      </trkpt>
      <trkpt lat="51.231828560526" lon="4.561791407528">
        <ele>0.2</ele>
        <time>2019-04-20T10:57:58Z</time>
      </trkpt>
      <trkpt lat="51.232092590376" lon="4.561592924136">
        <ele>0</ele>
        <time>2019-04-20T10:58:10Z</time>
      </trkpt>
      <trkpt lat="51.23226073129" lon="4.561454958062">
        <ele>0</ele>
        <time>2019-04-20T10:58:17Z</time>
      </trkpt>
      <trkpt lat="51.23242334015" lon="4.561321434395">
        <ele>0</ele>
        <time>2019-04-20T10:58:24Z</time>
      </trkpt>
      <trkpt lat="51.232586871019" lon="4.561202411415">
        <ele>0</ele>
        <time>2019-04-20T10:58:31Z</time>
      </trkpt>
      <trkpt lat="51.232775715226" lon="4.561091518878">
        <ele>0</ele>
        <time>2019-04-20T10:58:39Z</time>
      </trkpt>
      <trkpt lat="51.232946538348" lon="4.560973837002">
        <ele>0</ele>
        <time>2019-04-20T10:58:47Z</time>
      </trkpt>
      <trkpt lat="51.233123983171" lon="4.560844504285">
        <ele>0</ele>
        <time>2019-04-20T10:58:56Z</time>
      </trkpt>
      <trkpt lat="51.233248370567" lon="4.560657001182">
        <ele>0.6</ele>
        <time>2019-04-20T10:59:06Z</time>
      </trkpt>
      <trkpt lat="51.233224398333" lon="4.56055071869">
        <ele>3</ele>
        <time>2019-04-20T10:59:11Z</time>
      </trkpt>
      <trkpt lat="51.233269409136" lon="4.560534876899">
        <ele>0</ele>
        <time>2019-04-20T11:00:29Z</time>
      </trkpt>
      <trkpt lat="51.233258009752" lon="4.560531188863">
        <ele>0</ele>
        <time>2019-04-20T11:00:30Z</time>
      </trkpt>
      <trkpt lat="51.233264379996" lon="4.560425912199">
        <ele>0</ele>
        <time>2019-04-20T11:00:34Z</time>
      </trkpt>
      <trkpt lat="51.233289022782" lon="4.560116620089">
        <ele>0</ele>
        <time>2019-04-20T11:00:41Z</time>
      </trkpt>
      <trkpt lat="51.233225404161" lon="4.559838005733">
        <ele>0.6</ele>
        <time>2019-04-20T11:00:48Z</time>
      </trkpt>
      <trkpt lat="51.2331483745" lon="4.559579088842">
        <ele>5.6</ele>
        <time>2019-04-20T11:00:55Z</time>
      </trkpt>
      <trkpt lat="51.233054413401" lon="4.559325452548">
        <ele>8</ele>
        <time>2019-04-20T11:01:02Z</time>
      </trkpt>
      <trkpt lat="51.232946705986" lon="4.559066787114">
        <ele>9.6</ele>
        <time>2019-04-20T11:01:09Z</time>
      </trkpt>
      <trkpt lat="51.232883255003" lon="4.558779958496">
        <ele>10.2</ele>
        <time>2019-04-20T11:01:18Z</time>
      </trkpt>
      <trkpt lat="51.232824414065" lon="4.558575272498">
        <ele>10.6</ele>
        <time>2019-04-20T11:01:25Z</time>
      </trkpt>
      <trkpt lat="51.232757694141" lon="4.558305626775">
        <ele>8.2</ele>
        <time>2019-04-20T11:01:32Z</time>
      </trkpt>
      <trkpt lat="51.232686699448" lon="4.558018462881">
        <ele>6.6</ele>
        <time>2019-04-20T11:01:39Z</time>
      </trkpt>
      <trkpt lat="51.232602293715" lon="4.557754013936">
        <ele>5.4</ele>
        <time>2019-04-20T11:01:45Z</time>
      </trkpt>
      <trkpt lat="51.232508667892" lon="4.557473387924">
        <ele>5</ele>
        <time>2019-04-20T11:01:52Z</time>
      </trkpt>
      <trkpt lat="51.232411018757" lon="4.5571887386">
        <ele>5.4</ele>
        <time>2019-04-20T11:01:59Z</time>
      </trkpt>
      <trkpt lat="51.232338515322" lon="4.556890594417">
        <ele>9.8</ele>
        <time>2019-04-20T11:02:06Z</time>
      </trkpt>
      <trkpt lat="51.232247068793" lon="4.556606699464">
        <ele>13.2</ele>
        <time>2019-04-20T11:02:14Z</time>
      </trkpt>
      <trkpt lat="51.232165596725" lon="4.556348536944">
        <ele>11.4</ele>
        <time>2019-04-20T11:02:21Z</time>
      </trkpt>
      <trkpt lat="51.232088231788" lon="4.556047710553">
        <ele>8.8</ele>
        <time>2019-04-20T11:02:29Z</time>
      </trkpt>
      <trkpt lat="51.23201262705" lon="4.555780998495">
        <ele>7.8</ele>
        <time>2019-04-20T11:02:36Z</time>
      </trkpt>
      <trkpt lat="51.231928724231" lon="4.555513448247">
        <ele>6.6</ele>
        <time>2019-04-20T11:02:43Z</time>
      </trkpt>
      <trkpt lat="51.231851610751" lon="4.555238102832">
        <ele>6</ele>
        <time>2019-04-20T11:02:50Z</time>
      </trkpt>
      <trkpt lat="51.231781621886" lon="4.55497088786">
        <ele>6.8</ele>
        <time>2019-04-20T11:02:57Z</time>
      </trkpt>
      <trkpt lat="51.231704424587" lon="4.55471272534">
        <ele>6.6</ele>
        <time>2019-04-20T11:03:04Z</time>
      </trkpt>
      <trkpt lat="51.231618007198" lon="4.554423465971">
        <ele>7.6</ele>
        <time>2019-04-20T11:03:12Z</time>
      </trkpt>
      <trkpt lat="51.231534774931" lon="4.554160190492">
        <ele>8</ele>
        <time>2019-04-20T11:03:19Z</time>
      </trkpt>
      <trkpt lat="51.231463696419" lon="4.553886605276">
        <ele>7.6</ele>
        <time>2019-04-20T11:03:26Z</time>
      </trkpt>
      <trkpt lat="51.231382811084" lon="4.553604135246">
        <ele>7.6</ele>
        <time>2019-04-20T11:03:33Z</time>
      </trkpt>
      <trkpt lat="51.231304691776" lon="4.553324012148">
        <ele>8.6</ele>
        <time>2019-04-20T11:03:41Z</time>
      </trkpt>
      <trkpt lat="51.23121718474" lon="4.553036093883">
        <ele>7.6</ele>
        <time>2019-04-20T11:03:48Z</time>
      </trkpt>
      <trkpt lat="51.231134706844" lon="4.552755467871">
        <ele>5.8</ele>
        <time>2019-04-20T11:03:55Z</time>
      </trkpt>
      <trkpt lat="51.231046613075" lon="4.552477356429">
        <ele>3.4</ele>
        <time>2019-04-20T11:04:03Z</time>
      </trkpt>
      <trkpt lat="51.230965560102" lon="4.5521847443">
        <ele>3.6</ele>
        <time>2019-04-20T11:04:11Z</time>
      </trkpt>
      <trkpt lat="51.230870676994" lon="4.551913338378">
        <ele>3.2</ele>
        <time>2019-04-20T11:04:19Z</time>
      </trkpt>
      <trkpt lat="51.230804879079" lon="4.551623324638">
        <ele>1.6</ele>
        <time>2019-04-20T11:04:27Z</time>
      </trkpt>
      <trkpt lat="51.230722401183" lon="4.551328533215">
        <ele>0.4</ele>
        <time>2019-04-20T11:04:35Z</time>
      </trkpt>
      <trkpt lat="51.230640426201" lon="4.551068023763">
        <ele>0</ele>
        <time>2019-04-20T11:04:42Z</time>
      </trkpt>
      <trkpt lat="51.230566916938" lon="4.550779602584">
        <ele>0.4</ele>
        <time>2019-04-20T11:04:50Z</time>
      </trkpt>
      <trkpt lat="51.230486199241" lon="4.550514818363">
        <ele>0</ele>
        <time>2019-04-20T11:04:57Z</time>
      </trkpt>
      <trkpt lat="51.230467591423" lon="4.550367967475">
        <ele>0.2</ele>
        <time>2019-04-20T11:05:01Z</time>
      </trkpt>
      <trkpt lat="51.230619722908" lon="4.550209046651">
        <ele>1</ele>
        <time>2019-04-20T11:05:08Z</time>
      </trkpt>
      <trkpt lat="51.230815607911" lon="4.550162862382">
        <ele>2.2</ele>
        <time>2019-04-20T11:05:15Z</time>
      </trkpt>
      <trkpt lat="51.230952484338" lon="4.549903777853">
        <ele>1.2</ele>
        <time>2019-04-20T11:05:23Z</time>
      </trkpt>
      <trkpt lat="51.230960866238" lon="4.549597838503">
        <ele>1.6</ele>
        <time>2019-04-20T11:05:30Z</time>
      </trkpt>
      <trkpt lat="51.230980982798" lon="4.549300029596">
        <ele>0</ele>
        <time>2019-04-20T11:05:37Z</time>
      </trkpt>
      <trkpt lat="51.231009397439" lon="4.54899543135">
        <ele>0</ele>
        <time>2019-04-20T11:05:45Z</time>
      </trkpt>
      <trkpt lat="51.231046864532" lon="4.54870457942">
        <ele>1.8</ele>
        <time>2019-04-20T11:05:52Z</time>
      </trkpt>
      <trkpt lat="51.231095563371" lon="4.548388749428">
        <ele>1.8</ele>
        <time>2019-04-20T11:06:00Z</time>
      </trkpt>
      <trkpt lat="51.231141915278" lon="4.548105441208">
        <ele>2.2</ele>
        <time>2019-04-20T11:06:07Z</time>
      </trkpt>
      <trkpt lat="51.231208048469" lon="4.547833616191">
        <ele>0.6</ele>
        <time>2019-04-20T11:06:14Z</time>
      </trkpt>
      <trkpt lat="51.231275941859" lon="4.547550643247">
        <ele>0</ele>
        <time>2019-04-20T11:06:21Z</time>
      </trkpt>
      <trkpt lat="51.231375854107" lon="4.547277644764">
        <ele>0</ele>
        <time>2019-04-20T11:06:28Z</time>
      </trkpt>
      <trkpt lat="51.23146780355" lon="4.54701646476">
        <ele>0</ele>
        <time>2019-04-20T11:06:35Z</time>
      </trkpt>
      <trkpt lat="51.231558244251" lon="4.546736844576">
        <ele>0</ele>
        <time>2019-04-20T11:06:42Z</time>
      </trkpt>
      <trkpt lat="51.231660335793" lon="4.546475161658">
        <ele>0</ele>
        <time>2019-04-20T11:06:49Z</time>
      </trkpt>
      <trkpt lat="51.231767288837" lon="4.546233930576">
        <ele>0</ele>
        <time>2019-04-20T11:06:56Z</time>
      </trkpt>
      <trkpt lat="51.231872397863" lon="4.545981048653">
        <ele>3</ele>
        <time>2019-04-20T11:07:03Z</time>
      </trkpt>
      <trkpt lat="51.231988151902" lon="4.545742499779">
        <ele>5.6</ele>
        <time>2019-04-20T11:07:10Z</time>
      </trkpt>
      <trkpt lat="51.232111282013" lon="4.545490204589">
        <ele>8.4</ele>
        <time>2019-04-20T11:07:17Z</time>
      </trkpt>
      <trkpt lat="51.23223055645" lon="4.545248470593">
        <ele>8.8</ele>
        <time>2019-04-20T11:07:24Z</time>
      </trkpt>
      <trkpt lat="51.23236550504" lon="4.54500732333">
        <ele>9.4</ele>
        <time>2019-04-20T11:07:31Z</time>
      </trkpt>
      <trkpt lat="51.232484611839" lon="4.544767265714">
        <ele>7.8</ele>
        <time>2019-04-20T11:07:38Z</time>
      </trkpt>
      <trkpt lat="51.232608328683" lon="4.544536512007">
        <ele>9</ele>
        <time>2019-04-20T11:07:45Z</time>
      </trkpt>
      <trkpt lat="51.232729530957" lon="4.544274158537">
        <ele>4.6</ele>
        <time>2019-04-20T11:07:53Z</time>
      </trkpt>
      <trkpt lat="51.232855091819" lon="4.544028987962">
        <ele>4</ele>
        <time>2019-04-20T11:08:01Z</time>
      </trkpt>
      <trkpt lat="51.232967576917" lon="4.543800245911">
        <ele>2.6</ele>
        <time>2019-04-20T11:08:08Z</time>
      </trkpt>
      <trkpt lat="51.233085761707" lon="4.543552476947">
        <ele>3.8</ele>
        <time>2019-04-20T11:08:15Z</time>
      </trkpt>
      <trkpt lat="51.233198917357" lon="4.543288111821">
        <ele>2.4</ele>
        <time>2019-04-20T11:08:23Z</time>
      </trkpt>
      <trkpt lat="51.233297739958" lon="4.543036319545">
        <ele>2.4</ele>
        <time>2019-04-20T11:08:30Z</time>
      </trkpt>
      <trkpt lat="51.233390443772" lon="4.542769942763">
        <ele>0</ele>
        <time>2019-04-20T11:08:37Z</time>
      </trkpt>
      <trkpt lat="51.233475436238" lon="4.542471547123">
        <ele>0</ele>
        <time>2019-04-20T11:08:45Z</time>
      </trkpt>
      <trkpt lat="51.233552549718" lon="4.542167619429">
        <ele>0</ele>
        <time>2019-04-20T11:08:53Z</time>
      </trkpt>
      <trkpt lat="51.233627651542" lon="4.541865284296">
        <ele>0</ele>
        <time>2019-04-20T11:09:01Z</time>
      </trkpt>
      <trkpt lat="51.233702166633" lon="4.541570828149">
        <ele>0</ele>
        <time>2019-04-20T11:09:09Z</time>
      </trkpt>
      <trkpt lat="51.233751619843" lon="4.541269415025">
        <ele>0</ele>
        <time>2019-04-20T11:09:16Z</time>
      </trkpt>
      <trkpt lat="51.233797720293" lon="4.540986944995">
        <ele>0</ele>
        <time>2019-04-20T11:09:23Z</time>
      </trkpt>
      <trkpt lat="51.233836612309" lon="4.540670025356">
        <ele>0</ele>
        <time>2019-04-20T11:09:31Z</time>
      </trkpt>
      <trkpt lat="51.233860249267" lon="4.540345813464">
        <ele>0</ele>
        <time>2019-04-20T11:09:39Z</time>
      </trkpt>
      <trkpt lat="51.233879946732" lon="4.54004272396">
        <ele>0.2</ele>
        <time>2019-04-20T11:09:46Z</time>
      </trkpt>
      <trkpt lat="51.233891346116" lon="4.539742316664">
        <ele>0</ele>
        <time>2019-04-20T11:09:53Z</time>
      </trkpt>
      <trkpt lat="51.233887238985" lon="4.539443669567">
        <ele>0</ele>
        <time>2019-04-20T11:10:00Z</time>
      </trkpt>
      <trkpt lat="51.23387927618" lon="4.53914669885">
        <ele>0</ele>
        <time>2019-04-20T11:10:07Z</time>
      </trkpt>
      <trkpt lat="51.233871061918" lon="4.538849560495">
        <ele>0</ele>
        <time>2019-04-20T11:10:14Z</time>
      </trkpt>
      <trkpt lat="51.233849352797" lon="4.538551835407">
        <ele>0</ele>
        <time>2019-04-20T11:10:21Z</time>
      </trkpt>
      <trkpt lat="51.233818842681" lon="4.538256121975">
        <ele>0</ele>
        <time>2019-04-20T11:10:28Z</time>
      </trkpt>
      <trkpt lat="51.233769557109" lon="4.537976669429">
        <ele>0</ele>
        <time>2019-04-20T11:10:35Z</time>
      </trkpt>
      <trkpt lat="51.233728569618" lon="4.537677184142">
        <ele>0</ele>
        <time>2019-04-20T11:10:42Z</time>
      </trkpt>
      <trkpt lat="51.233677356209" lon="4.537375519561">
        <ele>0</ele>
        <time>2019-04-20T11:10:49Z</time>
      </trkpt>
      <trkpt lat="51.233632261587" lon="4.536937816743">
        <ele>0</ele>
        <time>2019-04-20T11:11:00Z</time>
      </trkpt>
      <trkpt lat="51.233592950476" lon="4.536656939274">
        <ele>0</ele>
        <time>2019-04-20T11:11:07Z</time>
      </trkpt>
      <trkpt lat="51.233539138678" lon="4.536363153679">
        <ele>0</ele>
        <time>2019-04-20T11:11:14Z</time>
      </trkpt>
      <trkpt lat="51.233500498119" lon="4.536063919849">
        <ele>0</ele>
        <time>2019-04-20T11:11:21Z</time>
      </trkpt>
      <trkpt lat="51.233465377958" lon="4.535755968843">
        <ele>0</ele>
        <time>2019-04-20T11:11:29Z</time>
      </trkpt>
      <trkpt lat="51.233434616385" lon="4.535446844371">
        <ele>0</ele>
        <time>2019-04-20T11:11:38Z</time>
      </trkpt>
      <trkpt lat="51.233384241166" lon="4.535154232242">
        <ele>0</ele>
        <time>2019-04-20T11:11:45Z</time>
      </trkpt>
      <trkpt lat="51.233298578148" lon="4.534860362828">
        <ele>0</ele>
        <time>2019-04-20T11:11:52Z</time>
      </trkpt>
      <trkpt lat="51.233243844341" lon="4.534555513125">
        <ele>0</ele>
        <time>2019-04-20T11:12:00Z</time>
      </trkpt>
      <trkpt lat="51.233238479925" lon="4.534252255983">
        <ele>0</ele>
        <time>2019-04-20T11:12:07Z</time>
      </trkpt>
      <trkpt lat="51.233211993121" lon="4.533944556434">
        <ele>0</ele>
        <time>2019-04-20T11:12:14Z</time>
      </trkpt>
      <trkpt lat="51.233202773031" lon="4.533642556577">
        <ele>0</ele>
        <time>2019-04-20T11:12:21Z</time>
      </trkpt>
      <trkpt lat="51.233208807999" lon="4.533346340231">
        <ele>0</ele>
        <time>2019-04-20T11:12:28Z</time>
      </trkpt>
      <trkpt lat="51.233196067511" lon="4.533023888538">
        <ele>0.6</ele>
        <time>2019-04-20T11:12:36Z</time>
      </trkpt>
      <trkpt lat="51.233210819655" lon="4.532705627795">
        <ele>0</ele>
        <time>2019-04-20T11:12:44Z</time>
      </trkpt>
      <trkpt lat="51.233216519347" lon="4.532385187758">
        <ele>0</ele>
        <time>2019-04-20T11:12:52Z</time>
      </trkpt>
      <trkpt lat="51.233223560143" lon="4.53208913905">
        <ele>0</ele>
        <time>2019-04-20T11:13:00Z</time>
      </trkpt>
      <trkpt lat="51.23326488291" lon="4.531799544405">
        <ele>0</ele>
        <time>2019-04-20T11:13:08Z</time>
      </trkpt>
      <trkpt lat="51.233289106601" lon="4.531497209272">
        <ele>0</ele>
        <time>2019-04-20T11:13:16Z</time>
      </trkpt>
      <trkpt lat="51.233323304753" lon="4.531173919389">
        <ele>0</ele>
        <time>2019-04-20T11:13:24Z</time>
      </trkpt>
      <trkpt lat="51.233363034959" lon="4.530876026663">
        <ele>0</ele>
        <time>2019-04-20T11:13:32Z</time>
      </trkpt>
      <trkpt lat="51.233404525364" lon="4.530581989611">
        <ele>0</ele>
        <time>2019-04-20T11:13:39Z</time>
      </trkpt>
      <trkpt lat="51.233452218375" lon="4.530267416904">
        <ele>0</ele>
        <time>2019-04-20T11:13:47Z</time>
      </trkpt>
      <trkpt lat="51.233485159242" lon="4.529965249409">
        <ele>0</ele>
        <time>2019-04-20T11:13:54Z</time>
      </trkpt>
      <trkpt lat="51.233522039602" lon="4.529683114655">
        <ele>0</ele>
        <time>2019-04-20T11:14:01Z</time>
      </trkpt>
      <trkpt lat="51.233545341284" lon="4.529379606056">
        <ele>0</ele>
        <time>2019-04-20T11:14:08Z</time>
      </trkpt>
      <trkpt lat="51.233570570803" lon="4.529087329203">
        <ele>0</ele>
        <time>2019-04-20T11:14:15Z</time>
      </trkpt>
      <trkpt lat="51.233592950476" lon="4.528794465617">
        <ele>0</ele>
        <time>2019-04-20T11:14:22Z</time>
      </trkpt>
      <trkpt lat="51.233619772556" lon="4.528495399425">
        <ele>2.2</ele>
        <time>2019-04-20T11:14:29Z</time>
      </trkpt>
      <trkpt lat="51.233653300156" lon="4.528177138682">
        <ele>3.6</ele>
        <time>2019-04-20T11:14:37Z</time>
      </trkpt>
      <trkpt lat="51.233683810272" lon="4.527883185449">
        <ele>3.6</ele>
        <time>2019-04-20T11:14:44Z</time>
      </trkpt>
      <trkpt lat="51.233716164406" lon="4.527593171709">
        <ele>4.2</ele>
        <time>2019-04-20T11:14:51Z</time>
      </trkpt>
      <trkpt lat="51.233744914323" lon="4.527275162423">
        <ele>4.8</ele>
        <time>2019-04-20T11:14:59Z</time>
      </trkpt>
      <trkpt lat="51.233789422212" lon="4.526978359344">
        <ele>3.6</ele>
        <time>2019-04-20T11:15:07Z</time>
      </trkpt>
      <trkpt lat="51.233828314228" lon="4.526665379198">
        <ele>4.4</ele>
        <time>2019-04-20T11:15:15Z</time>
      </trkpt>
      <trkpt lat="51.233873827945" lon="4.526384166453">
        <ele>3</ele>
        <time>2019-04-20T11:15:22Z</time>
      </trkpt>
      <trkpt lat="51.233903416052" lon="4.526083842976">
        <ele>1.2</ele>
        <time>2019-04-20T11:15:29Z</time>
      </trkpt>
      <trkpt lat="51.233941972792" lon="4.525796427625">
        <ele>0.6</ele>
        <time>2019-04-20T11:15:36Z</time>
      </trkpt>
      <trkpt lat="51.233943565353" lon="4.5256141213">
        <ele>0</ele>
        <time>2019-04-20T11:15:41Z</time>
      </trkpt>
      <trkpt lat="51.233750027282" lon="4.525598279509">
        <ele>0</ele>
        <time>2019-04-20T11:15:50Z</time>
      </trkpt>
      <trkpt lat="51.233554561374" lon="4.525617809336">
        <ele>0</ele>
        <time>2019-04-20T11:15:58Z</time>
      </trkpt>
      <trkpt lat="51.233367393547" lon="4.525639015543">
        <ele>0</ele>
        <time>2019-04-20T11:16:05Z</time>
      </trkpt>
      <trkpt lat="51.233180393358" lon="4.525667011089">
        <ele>0</ele>
        <time>2019-04-20T11:16:12Z</time>
      </trkpt>
      <trkpt lat="51.232988028753" lon="4.52567447098">
        <ele>0</ele>
        <time>2019-04-20T11:16:20Z</time>
      </trkpt>
      <trkpt lat="51.232816870355" lon="4.525590987256">
        <ele>0.6</ele>
        <time>2019-04-20T11:16:27Z</time>
      </trkpt>
      <trkpt lat="51.23272341217" lon="4.52533081308">
        <ele>2.6</ele>
        <time>2019-04-20T11:16:34Z</time>
      </trkpt>
      <trkpt lat="51.232669600372" lon="4.525056389674">
        <ele>5</ele>
        <time>2019-04-20T11:16:41Z</time>
      </trkpt>
      <trkpt lat="51.232583182983" lon="4.524674258853">
        <ele>4.8</ele>
        <time>2019-04-20T11:16:51Z</time>
      </trkpt>
      <trkpt lat="51.232541357302" lon="4.524393549022">
        <ele>4.4</ele>
        <time>2019-04-20T11:16:58Z</time>
      </trkpt>
      <trkpt lat="51.232477487224" lon="4.524125328222">
        <ele>4.8</ele>
        <time>2019-04-20T11:17:05Z</time>
      </trkpt>
      <trkpt lat="51.232421915227" lon="4.523815952293">
        <ele>6</ele>
        <time>2019-04-20T11:17:13Z</time>
      </trkpt>
      <trkpt lat="51.232370115085" lon="4.523500289939">
        <ele>6.2</ele>
        <time>2019-04-20T11:17:21Z</time>
      </trkpt>
      <trkpt lat="51.232440355407" lon="4.523211198208">
        <ele>3.8</ele>
        <time>2019-04-20T11:17:29Z</time>
      </trkpt>
      <trkpt lat="51.23253901037" lon="4.522927135617">
        <ele>3.4</ele>
        <time>2019-04-20T11:17:37Z</time>
      </trkpt>
      <trkpt lat="51.232621236809" lon="4.522668470183">
        <ele>3</ele>
        <time>2019-04-20T11:17:44Z</time>
      </trkpt>
      <trkpt lat="51.232716874288" lon="4.522400919935">
        <ele>2.2</ele>
        <time>2019-04-20T11:17:51Z</time>
      </trkpt>
      <trkpt lat="51.232808320817" lon="4.522116773525">
        <ele>2</ele>
        <time>2019-04-20T11:17:59Z</time>
      </trkpt>
      <trkpt lat="51.232903203925" lon="4.521842936852">
        <ele>1.6</ele>
        <time>2019-04-20T11:18:07Z</time>
      </trkpt>
      <trkpt lat="51.232987106744" lon="4.521559544813">
        <ele>1.4</ele>
        <time>2019-04-20T11:18:15Z</time>
      </trkpt>
      <trkpt lat="51.233062292387" lon="4.52129911918">
        <ele>0</ele>
        <time>2019-04-20T11:18:22Z</time>
      </trkpt>
      <trkpt lat="51.233142758627" lon="4.521040872841">
        <ele>0</ele>
        <time>2019-04-20T11:18:29Z</time>
      </trkpt>
      <trkpt lat="51.23323051712" lon="4.520779022285">
        <ele>0</ele>
        <time>2019-04-20T11:18:36Z</time>
      </trkpt>
      <trkpt lat="51.233322634201" lon="4.520490014373">
        <ele>0</ele>
        <time>2019-04-20T11:18:44Z</time>
      </trkpt>
      <trkpt lat="51.233403100441" lon="4.520231097482">
        <ele>0</ele>
        <time>2019-04-20T11:18:51Z</time>
      </trkpt>
      <trkpt lat="51.233498402644" lon="4.519937730982">
        <ele>0</ele>
        <time>2019-04-20T11:18:59Z</time>
      </trkpt>
      <trkpt lat="51.233572833916" lon="4.519655344771">
        <ele>0.4</ele>
        <time>2019-04-20T11:19:06Z</time>
      </trkpt>
      <trkpt lat="51.233635279071" lon="4.519377317148">
        <ele>3.8</ele>
        <time>2019-04-20T11:19:13Z</time>
      </trkpt>
      <trkpt lat="51.233695964027" lon="4.519069030866">
        <ele>3.6</ele>
        <time>2019-04-20T11:19:21Z</time>
      </trkpt>
      <trkpt lat="51.233756732802" lon="4.518757559462">
        <ele>2</ele>
        <time>2019-04-20T11:19:29Z</time>
      </trkpt>
      <trkpt lat="51.233811047514" lon="4.518471820491">
        <ele>0</ele>
        <time>2019-04-20T11:19:36Z</time>
      </trkpt>
      <trkpt lat="51.233857902335" lon="4.518168730987">
        <ele>0</ele>
        <time>2019-04-20T11:19:44Z</time>
      </trkpt>
      <trkpt lat="51.233878186533" lon="4.51788349493">
        <ele>0</ele>
        <time>2019-04-20T11:19:51Z</time>
      </trkpt>
      <trkpt lat="51.233905762984" lon="4.517587530041">
        <ele>0</ele>
        <time>2019-04-20T11:19:58Z</time>
      </trkpt>
      <trkpt lat="51.233974997478" lon="4.517311597893">
        <ele>0</ele>
        <time>2019-04-20T11:20:05Z</time>
      </trkpt>
      <trkpt lat="51.234054960804" lon="4.517050920803">
        <ele>0</ele>
        <time>2019-04-20T11:20:12Z</time>
      </trkpt>
      <trkpt lat="51.234138779804" lon="4.516793093559">
        <ele>0</ele>
        <time>2019-04-20T11:20:19Z</time>
      </trkpt>
      <trkpt lat="51.234233243817" lon="4.516540966007">
        <ele>2.6</ele>
        <time>2019-04-20T11:20:27Z</time>
      </trkpt>
      <trkpt lat="51.234327288735" lon="4.516283809315">
        <ele>1.6</ele>
        <time>2019-04-20T11:20:34Z</time>
      </trkpt>
      <trkpt lat="51.234403647844" lon="4.516019276551">
        <ele>1.2</ele>
        <time>2019-04-20T11:20:41Z</time>
      </trkpt>
      <trkpt lat="51.234478079116" lon="4.515754576149">
        <ele>0.6</ele>
        <time>2019-04-20T11:20:48Z</time>
      </trkpt>
      <trkpt lat="51.23454563723" lon="4.515480990933">
        <ele>0</ele>
        <time>2019-04-20T11:20:55Z</time>
      </trkpt>
      <trkpt lat="51.234625768194" lon="4.51518284675">
        <ele>0</ele>
        <time>2019-04-20T11:21:02Z</time>
      </trkpt>
      <trkpt lat="51.234706988805" lon="4.514893838838">
        <ele>0</ele>
        <time>2019-04-20T11:21:09Z</time>
      </trkpt>
      <trkpt lat="51.234781503896" lon="4.514604998564">
        <ele>2.4</ele>
        <time>2019-04-20T11:21:16Z</time>
      </trkpt>
      <trkpt lat="51.234853588236" lon="4.514339711429">
        <ele>2.2</ele>
        <time>2019-04-20T11:21:23Z</time>
      </trkpt>
      <trkpt lat="51.234961630927" lon="4.514067886412">
        <ele>1.6</ele>
        <time>2019-04-20T11:21:31Z</time>
      </trkpt>
      <trkpt lat="51.235057603682" lon="4.513794133558">
        <ele>0</ele>
        <time>2019-04-20T11:21:39Z</time>
      </trkpt>
      <trkpt lat="51.235160952509" lon="4.513511831166">
        <ele>0</ele>
        <time>2019-04-20T11:21:47Z</time>
      </trkpt>
      <trkpt lat="51.235258769282" lon="4.513228774403">
        <ele>0</ele>
        <time>2019-04-20T11:21:55Z</time>
      </trkpt>
      <trkpt lat="51.235350131992" lon="4.512976395394">
        <ele>0</ele>
        <time>2019-04-20T11:22:02Z</time>
      </trkpt>
      <trkpt lat="51.235444009272" lon="4.512688058034">
        <ele>0.2</ele>
        <time>2019-04-20T11:22:10Z</time>
      </trkpt>
      <trkpt lat="51.235548866841" lon="4.512411539153">
        <ele>0.2</ele>
        <time>2019-04-20T11:22:18Z</time>
      </trkpt>
      <trkpt lat="51.235642576483" lon="4.512128985304">
        <ele>0</ele>
        <time>2019-04-20T11:22:26Z</time>
      </trkpt>
      <trkpt lat="51.235776686883" lon="4.511692288314">
        <ele>0</ele>
        <time>2019-04-20T11:22:38Z</time>
      </trkpt>
      <trkpt lat="51.23586243372" lon="4.511396826339">
        <ele>0</ele>
        <time>2019-04-20T11:22:46Z</time>
      </trkpt>
      <trkpt lat="51.235943319055" lon="4.511094742663">
        <ele>0</ele>
        <time>2019-04-20T11:22:54Z</time>
      </trkpt>
      <trkpt lat="51.236037531611" lon="4.510812607909">
        <ele>0</ele>
        <time>2019-04-20T11:23:02Z</time>
      </trkpt>
      <trkpt lat="51.236120680059" lon="4.510540699073">
        <ele>0</ele>
        <time>2019-04-20T11:23:09Z</time>
      </trkpt>
      <trkpt lat="51.236202487403" lon="4.510272226816">
        <ele>0</ele>
        <time>2019-04-20T11:23:16Z</time>
      </trkpt>
      <trkpt lat="51.236300555633" lon="4.509986487845">
        <ele>0</ele>
        <time>2019-04-20T11:23:24Z</time>
      </trkpt>
      <trkpt lat="51.23638714066" lon="4.509697312295">
        <ele>0</ele>
        <time>2019-04-20T11:23:32Z</time>
      </trkpt>
      <trkpt lat="51.236467690719" lon="4.509438479223">
        <ele>0</ele>
        <time>2019-04-20T11:23:40Z</time>
      </trkpt>
      <trkpt lat="51.236542121991" lon="4.509176963943">
        <ele>0</ele>
        <time>2019-04-20T11:23:47Z</time>
      </trkpt>
      <trkpt lat="51.236610602114" lon="4.508903211089">
        <ele>0.2</ele>
        <time>2019-04-20T11:23:54Z</time>
      </trkpt>
      <trkpt lat="51.236680590979" lon="4.508625602561">
        <ele>0.8</ele>
        <time>2019-04-20T11:24:01Z</time>
      </trkpt>
      <trkpt lat="51.236760219029" lon="4.50834153997">
        <ele>0.8</ele>
        <time>2019-04-20T11:24:09Z</time>
      </trkpt>
      <trkpt lat="51.236850492092" lon="4.508048508746">
        <ele>0</ele>
        <time>2019-04-20T11:24:17Z</time>
      </trkpt>
      <trkpt lat="51.236925174821" lon="4.507771235494">
        <ele>0</ele>
        <time>2019-04-20T11:24:24Z</time>
      </trkpt>
      <trkpt lat="51.237008742364" lon="4.507515587544">
        <ele>0</ele>
        <time>2019-04-20T11:24:31Z</time>
      </trkpt>
      <trkpt lat="51.23710211673" lon="4.507228172193">
        <ele>0</ele>
        <time>2019-04-20T11:24:39Z</time>
      </trkpt>
      <trkpt lat="51.237205633195" lon="4.506955592805">
        <ele>0</ele>
        <time>2019-04-20T11:24:47Z</time>
      </trkpt>
      <trkpt lat="51.237335385007" lon="4.506728610953">
        <ele>0</ele>
        <time>2019-04-20T11:24:55Z</time>
      </trkpt>
      <trkpt lat="51.237460442955" lon="4.506479333247">
        <ele>0</ele>
        <time>2019-04-20T11:25:03Z</time>
      </trkpt>
      <trkpt lat="51.237569323836" lon="4.506206921497">
        <ele>0</ele>
        <time>2019-04-20T11:25:11Z</time>
      </trkpt>
      <trkpt lat="51.237666637695" lon="4.50592000906">
        <ele>0.6</ele>
        <time>2019-04-20T11:25:19Z</time>
      </trkpt>
      <trkpt lat="51.237757497491" lon="4.505655224839">
        <ele>2.4</ele>
        <time>2019-04-20T11:25:27Z</time>
      </trkpt>
      <trkpt lat="51.23785648773" lon="4.505406366228">
        <ele>3.4</ele>
        <time>2019-04-20T11:25:35Z</time>
      </trkpt>
      <trkpt lat="51.237965536249" lon="4.505144012758">
        <ele>3.8</ele>
        <time>2019-04-20T11:25:43Z</time>
      </trkpt>
      <trkpt lat="51.238077853709" lon="4.504909319558">
        <ele>3</ele>
        <time>2019-04-20T11:25:51Z</time>
      </trkpt>
      <trkpt lat="51.238183968563" lon="4.50464512207">
        <ele>3</ele>
        <time>2019-04-20T11:25:59Z</time>
      </trkpt>
      <trkpt lat="51.238286143924" lon="4.50438360679">
        <ele>2</ele>
        <time>2019-04-20T11:26:07Z</time>
      </trkpt>
      <trkpt lat="51.238381278489" lon="4.504135586369">
        <ele>1</ele>
        <time>2019-04-20T11:26:15Z</time>
      </trkpt>
      <trkpt lat="51.238468617887" lon="4.503877591487">
        <ele>0.6</ele>
        <time>2019-04-20T11:26:23Z</time>
      </trkpt>
      <trkpt lat="51.238572218171" lon="4.503614232189">
        <ele>1</ele>
        <time>2019-04-20T11:26:31Z</time>
      </trkpt>
      <trkpt lat="51.238665257261" lon="4.503352884547">
        <ele>3.4</ele>
        <time>2019-04-20T11:26:39Z</time>
      </trkpt>
      <trkpt lat="51.23877598216" lon="4.503108468343">
        <ele>6.6</ele>
        <time>2019-04-20T11:26:47Z</time>
      </trkpt>
      <trkpt lat="51.238862148092" lon="4.502827339417">
        <ele>7</ele>
        <time>2019-04-20T11:26:55Z</time>
      </trkpt>
      <trkpt lat="51.238953175526" lon="4.502549730889">
        <ele>8.2</ele>
        <time>2019-04-20T11:27:03Z</time>
      </trkpt>
      <trkpt lat="51.239041939847" lon="4.502293496206">
        <ele>10.8</ele>
        <time>2019-04-20T11:27:11Z</time>
      </trkpt>
      <trkpt lat="51.239166243424" lon="4.502067939277">
        <ele>9</ele>
        <time>2019-04-20T11:27:19Z</time>
      </trkpt>
      <trkpt lat="51.239189461287" lon="4.5017927615">
        <ele>8</ele>
        <time>2019-04-20T11:27:26Z</time>
      </trkpt>
      <trkpt lat="51.239159286447" lon="4.501503083036">
        <ele>6</ele>
        <time>2019-04-20T11:27:34Z</time>
      </trkpt>
      <trkpt lat="51.239219971403" lon="4.501222289386">
        <ele>4.4</ele>
        <time>2019-04-20T11:27:41Z</time>
      </trkpt>
      <trkpt lat="51.239287445698" lon="4.500940573727">
        <ele>6.2</ele>
        <time>2019-04-20T11:27:48Z</time>
      </trkpt>
      <trkpt lat="51.239355422907" lon="4.500643351553">
        <ele>5.8</ele>
        <time>2019-04-20T11:27:56Z</time>
      </trkpt>
      <trkpt lat="51.239417616605" lon="4.500372448545">
        <ele>6</ele>
        <time>2019-04-20T11:28:03Z</time>
      </trkpt>
      <trkpt lat="51.239474362068" lon="4.500083775909">
        <ele>4.6</ele>
        <time>2019-04-20T11:28:11Z</time>
      </trkpt>
      <trkpt lat="51.23958986465" lon="4.499855620591">
        <ele>3.8</ele>
        <time>2019-04-20T11:28:19Z</time>
      </trkpt>
      <trkpt lat="51.239653818547" lon="4.499579436986">
        <ele>2</ele>
        <time>2019-04-20T11:28:27Z</time>
      </trkpt>
      <trkpt lat="51.23960998121" lon="4.499093370605">
        <ele>0</ele>
        <time>2019-04-20T11:28:40Z</time>
      </trkpt>
      <trkpt lat="51.239637557661" lon="4.49878198302">
        <ele>0</ele>
        <time>2019-04-20T11:28:48Z</time>
      </trkpt>
      <trkpt lat="51.239658763868" lon="4.498494064755">
        <ele>0</ele>
        <time>2019-04-20T11:28:55Z</time>
      </trkpt>
      <trkpt lat="51.239668403053" lon="4.498174965822">
        <ele>0</ele>
        <time>2019-04-20T11:29:03Z</time>
      </trkpt>
      <trkpt lat="51.239659769696" lon="4.497884616806">
        <ele>0</ele>
        <time>2019-04-20T11:29:10Z</time>
      </trkpt>
      <trkpt lat="51.239652142167" lon="4.49756912209">
        <ele>0</ele>
        <time>2019-04-20T11:29:18Z</time>
      </trkpt>
      <trkpt lat="51.239641161878" lon="4.497258656514">
        <ele>0</ele>
        <time>2019-04-20T11:29:26Z</time>
      </trkpt>
      <trkpt lat="51.239644263181" lon="4.496936204821">
        <ele>0</ele>
        <time>2019-04-20T11:29:34Z</time>
      </trkpt>
      <trkpt lat="51.239642754439" lon="4.496636970991">
        <ele>0</ele>
        <time>2019-04-20T11:29:41Z</time>
      </trkpt>
      <trkpt lat="51.239652058348" lon="4.496320805723">
        <ele>0</ele>
        <time>2019-04-20T11:29:49Z</time>
      </trkpt>
      <trkpt lat="51.239642251525" lon="4.496016207477">
        <ele>0</ele>
        <time>2019-04-20T11:29:56Z</time>
      </trkpt>
      <trkpt lat="51.239638228213" lon="4.495729797954">
        <ele>0</ele>
        <time>2019-04-20T11:30:03Z</time>
      </trkpt>
      <trkpt lat="51.239638731127" lon="4.495407765356">
        <ele>0</ele>
        <time>2019-04-20T11:30:11Z</time>
      </trkpt>
      <trkpt lat="51.239664882655" lon="4.495098389427">
        <ele>0</ele>
        <time>2019-04-20T11:30:19Z</time>
      </trkpt>
      <trkpt lat="51.239707295069" lon="4.494817260501">
        <ele>0</ele>
        <time>2019-04-20T11:30:26Z</time>
      </trkpt>
      <trkpt lat="51.239762867066" lon="4.494532443539">
        <ele>0</ele>
        <time>2019-04-20T11:30:33Z</time>
      </trkpt>
      <trkpt lat="51.239819025796" lon="4.494235556641">
        <ele>0</ele>
        <time>2019-04-20T11:30:41Z</time>
      </trkpt>
      <trkpt lat="51.239881051856" lon="4.49392886292">
        <ele>0</ele>
        <time>2019-04-20T11:30:49Z</time>
      </trkpt>
      <trkpt lat="51.239934444559" lon="4.493633568583">
        <ele>0</ele>
        <time>2019-04-20T11:30:56Z</time>
      </trkpt>
      <trkpt lat="51.239978449534" lon="4.493353194028">
        <ele>0</ele>
        <time>2019-04-20T11:31:03Z</time>
      </trkpt>
      <trkpt lat="51.240038128662" lon="4.493046416488">
        <ele>0</ele>
        <time>2019-04-20T11:31:11Z</time>
      </trkpt>
      <trkpt lat="51.240091437546" lon="4.492762772992">
        <ele>0</ele>
        <time>2019-04-20T11:31:18Z</time>
      </trkpt>
      <trkpt lat="51.240154469434" lon="4.492473262166">
        <ele>0</ele>
        <time>2019-04-20T11:31:25Z</time>
      </trkpt>
      <trkpt lat="51.240201408074" lon="4.49218458953">
        <ele>0</ele>
        <time>2019-04-20T11:31:32Z</time>
      </trkpt>
      <trkpt lat="51.240232085828" lon="4.491862137837">
        <ele>0</ele>
        <time>2019-04-20T11:31:40Z</time>
      </trkpt>
      <trkpt lat="51.240258237356" lon="4.491577991427">
        <ele>0</ele>
        <time>2019-04-20T11:31:47Z</time>
      </trkpt>
      <trkpt lat="51.240274498242" lon="4.49125503682">
        <ele>0</ele>
        <time>2019-04-20T11:31:55Z</time>
      </trkpt>
      <trkpt lat="51.240327723307" lon="4.490957730827">
        <ele>0</ele>
        <time>2019-04-20T11:32:03Z</time>
      </trkpt>
      <trkpt lat="51.240373488481" lon="4.490654138409">
        <ele>0</ele>
        <time>2019-04-20T11:32:11Z</time>
      </trkpt>
      <trkpt lat="51.24044230388" lon="4.490350462172">
        <ele>0</ele>
        <time>2019-04-20T11:32:19Z</time>
      </trkpt>
      <trkpt lat="51.240520507007" lon="4.490046534478">
        <ele>0</ele>
        <time>2019-04-20T11:32:27Z</time>
      </trkpt>
      <trkpt lat="51.240576246642" lon="4.489772530167">
        <ele>0</ele>
        <time>2019-04-20T11:32:34Z</time>
      </trkpt>
      <trkpt lat="51.240608014043" lon="4.489480420952">
        <ele>0</ele>
        <time>2019-04-20T11:32:41Z</time>
      </trkpt>
      <trkpt lat="51.240634165571" lon="4.489194933438">
        <ele>0.2</ele>
        <time>2019-04-20T11:32:48Z</time>
      </trkpt>
      <trkpt lat="51.240664508049" lon="4.488874744858">
        <ele>1.2</ele>
        <time>2019-04-20T11:32:56Z</time>
      </trkpt>
      <trkpt lat="51.240701807504" lon="4.488592274828">
        <ele>1.2</ele>
        <time>2019-04-20T11:33:03Z</time>
      </trkpt>
      <trkpt lat="51.240738855502" lon="4.488272672981">
        <ele>0</ele>
        <time>2019-04-20T11:33:11Z</time>
      </trkpt>
      <trkpt lat="51.240779507717" lon="4.487964470518">
        <ele>0</ele>
        <time>2019-04-20T11:33:19Z</time>
      </trkpt>
      <trkpt lat="51.240798450811" lon="4.487643443748">
        <ele>0</ele>
        <time>2019-04-20T11:33:27Z</time>
      </trkpt>
      <trkpt lat="51.2408261949" lon="4.487322919892">
        <ele>0</ele>
        <time>2019-04-20T11:33:35Z</time>
      </trkpt>
      <trkpt lat="51.240857710844" lon="4.487015136524">
        <ele>0</ele>
        <time>2019-04-20T11:33:43Z</time>
      </trkpt>
      <trkpt lat="51.240884532924" lon="4.486712298477">
        <ele>0</ele>
        <time>2019-04-20T11:33:51Z</time>
      </trkpt>
      <trkpt lat="51.240908002244" lon="4.486426559506">
        <ele>0</ele>
        <time>2019-04-20T11:33:58Z</time>
      </trkpt>
      <trkpt lat="51.240928789356" lon="4.48610603565">
        <ele>0</ele>
        <time>2019-04-20T11:34:06Z</time>
      </trkpt>
      <trkpt lat="51.240935913971" lon="4.485801856499">
        <ele>0</ele>
        <time>2019-04-20T11:34:14Z</time>
      </trkpt>
      <trkpt lat="51.240935662514" lon="4.485492312932">
        <ele>0</ele>
        <time>2019-04-20T11:34:22Z</time>
      </trkpt>
      <trkpt lat="51.24093432141" lon="4.485013119709">
        <ele>0</ele>
        <time>2019-04-20T11:34:34Z</time>
      </trkpt>
      <trkpt lat="51.240936919799" lon="4.484710365481">
        <ele>0</ele>
        <time>2019-04-20T11:34:42Z</time>
      </trkpt>
      <trkpt lat="51.240927364433" lon="4.484419262094">
        <ele>0</ele>
        <time>2019-04-20T11:34:49Z</time>
      </trkpt>
      <trkpt lat="51.240915797411" lon="4.484124973585">
        <ele>0</ele>
        <time>2019-04-20T11:34:57Z</time>
      </trkpt>
      <trkpt lat="51.24090330838" lon="4.483822135538">
        <ele>0</ele>
        <time>2019-04-20T11:35:06Z</time>
      </trkpt>
      <trkpt lat="51.240887885684" lon="4.483509155392">
        <ele>0</ele>
        <time>2019-04-20T11:35:15Z</time>
      </trkpt>
      <trkpt lat="51.240870954246" lon="4.483218303462">
        <ele>0</ele>
        <time>2019-04-20T11:35:23Z</time>
      </trkpt>
      <trkpt lat="51.240850921505" lon="4.482915800691">
        <ele>0</ele>
        <time>2019-04-20T11:35:31Z</time>
      </trkpt>
      <trkpt lat="51.240818735009" lon="4.482606843857">
        <ele>0</ele>
        <time>2019-04-20T11:35:39Z</time>
      </trkpt>
      <trkpt lat="51.240798702268" lon="4.482292690245">
        <ele>0</ele>
        <time>2019-04-20T11:35:47Z</time>
      </trkpt>
      <trkpt lat="51.240771041998" lon="4.481974429502">
        <ele>0</ele>
        <time>2019-04-20T11:35:55Z</time>
      </trkpt>
      <trkpt lat="51.240751093076" lon="4.481686092142">
        <ele>0</ele>
        <time>2019-04-20T11:36:02Z</time>
      </trkpt>
      <trkpt lat="51.240738017312" lon="4.48136439482">
        <ele>0</ele>
        <time>2019-04-20T11:36:10Z</time>
      </trkpt>
      <trkpt lat="51.24071471563" lon="4.481054515977">
        <ele>0</ele>
        <time>2019-04-20T11:36:18Z</time>
      </trkpt>
      <trkpt lat="51.240704908807" lon="4.480736841967">
        <ele>0</ele>
        <time>2019-04-20T11:36:26Z</time>
      </trkpt>
      <trkpt lat="51.240664759506" lon="4.480445403304">
        <ele>0</ele>
        <time>2019-04-20T11:36:34Z</time>
      </trkpt>
      <trkpt lat="51.240639194711" lon="4.480145415103">
        <ele>0</ele>
        <time>2019-04-20T11:36:42Z</time>
      </trkpt>
      <trkpt lat="51.240618742875" lon="4.479847522377">
        <ele>0</ele>
        <time>2019-04-20T11:36:50Z</time>
      </trkpt>
      <trkpt lat="51.240616312124" lon="4.479520125363">
        <ele>0</ele>
        <time>2019-04-20T11:36:58Z</time>
      </trkpt>
      <trkpt lat="51.240597033754" lon="4.479199685326">
        <ele>0</ele>
        <time>2019-04-20T11:37:06Z</time>
      </trkpt>
      <trkpt lat="51.240576581918" lon="4.478887208094">
        <ele>0</ele>
        <time>2019-04-20T11:37:14Z</time>
      </trkpt>
      <trkpt lat="51.240560237213" lon="4.478587890445">
        <ele>0</ele>
        <time>2019-04-20T11:37:21Z</time>
      </trkpt>
      <trkpt lat="51.240546658535" lon="4.478292260832">
        <ele>0</ele>
        <time>2019-04-20T11:37:28Z</time>
      </trkpt>
      <trkpt lat="51.240528302174" lon="4.477998642875">
        <ele>0</ele>
        <time>2019-04-20T11:37:35Z</time>
      </trkpt>
      <trkpt lat="51.240497708239" lon="4.477691194783">
        <ele>0</ele>
        <time>2019-04-20T11:37:43Z</time>
      </trkpt>
      <trkpt lat="51.240464767372" lon="4.477406294002">
        <ele>0</ele>
        <time>2019-04-20T11:37:50Z</time>
      </trkpt>
      <trkpt lat="51.240377344155" lon="4.477122901963">
        <ele>0</ele>
        <time>2019-04-20T11:37:58Z</time>
      </trkpt>
      <trkpt lat="51.240331998076" lon="4.476819477183">
        <ele>0</ele>
        <time>2019-04-20T11:38:06Z</time>
      </trkpt>
      <trkpt lat="51.240268211817" lon="4.476542623026">
        <ele>0</ele>
        <time>2019-04-20T11:38:13Z</time>
      </trkpt>
      <trkpt lat="51.240218255693" lon="4.476247663965">
        <ele>0</ele>
        <time>2019-04-20T11:38:20Z</time>
      </trkpt>
      <trkpt lat="51.240190427785" lon="4.475931582516">
        <ele>0</ele>
        <time>2019-04-20T11:38:28Z</time>
      </trkpt>
      <trkpt lat="51.240149440294" lon="4.475615752524">
        <ele>0</ele>
        <time>2019-04-20T11:38:37Z</time>
      </trkpt>
      <trkpt lat="51.240134101417" lon="4.475295396306">
        <ele>0</ele>
        <time>2019-04-20T11:38:45Z</time>
      </trkpt>
      <trkpt lat="51.240115074504" lon="4.474997000666">
        <ele>0</ele>
        <time>2019-04-20T11:38:53Z</time>
      </trkpt>
      <trkpt lat="51.240099232713" lon="4.474717212844">
        <ele>0</ele>
        <time>2019-04-20T11:39:01Z</time>
      </trkpt>
      <trkpt lat="51.240081127809" lon="4.474422169964">
        <ele>0</ele>
        <time>2019-04-20T11:39:08Z</time>
      </trkpt>
      <trkpt lat="51.240047767847" lon="4.474111788207">
        <ele>0</ele>
        <time>2019-04-20T11:39:16Z</time>
      </trkpt>
      <trkpt lat="51.240002170311" lon="4.47382571396">
        <ele>0</ele>
        <time>2019-04-20T11:39:24Z</time>
      </trkpt>
      <trkpt lat="51.23993184617" lon="4.473563109033">
        <ele>0</ele>
        <time>2019-04-20T11:39:32Z</time>
      </trkpt>
      <trkpt lat="51.239923631908" lon="4.47326496485">
        <ele>0</ele>
        <time>2019-04-20T11:39:39Z</time>
      </trkpt>
      <trkpt lat="51.239888427928" lon="4.472961120975">
        <ele>0</ele>
        <time>2019-04-20T11:39:46Z</time>
      </trkpt>
      <trkpt lat="51.239906365194" lon="4.472648559924">
        <ele>0</ele>
        <time>2019-04-20T11:39:54Z</time>
      </trkpt>
      <trkpt lat="51.23988574572" lon="4.472336920882">
        <ele>0</ele>
        <time>2019-04-20T11:40:02Z</time>
      </trkpt>
      <trkpt lat="51.239874765431" lon="4.472033831378">
        <ele>0</ele>
        <time>2019-04-20T11:40:09Z</time>
      </trkpt>
      <trkpt lat="51.239857750174" lon="4.471718923395">
        <ele>0</ele>
        <time>2019-04-20T11:40:17Z</time>
      </trkpt>
      <trkpt lat="51.239835705777" lon="4.47139663934">
        <ele>0</ele>
        <time>2019-04-20T11:40:25Z</time>
      </trkpt>
      <trkpt lat="51.23981366138" lon="4.470885175802">
        <ele>0</ele>
        <time>2019-04-20T11:40:38Z</time>
      </trkpt>
      <trkpt lat="51.239798154865" lon="4.470566663602">
        <ele>0</ele>
        <time>2019-04-20T11:40:46Z</time>
      </trkpt>
      <trkpt lat="51.239786420205" lon="4.470274805844">
        <ele>0</ele>
        <time>2019-04-20T11:40:53Z</time>
      </trkpt>
      <trkpt lat="51.239769656405" lon="4.469952186513">
        <ele>0</ele>
        <time>2019-04-20T11:41:01Z</time>
      </trkpt>
      <trkpt lat="51.23975750265" lon="4.469655886348">
        <ele>0</ele>
        <time>2019-04-20T11:41:08Z</time>
      </trkpt>
      <trkpt lat="51.239725819068" lon="4.469365369694">
        <ele>2.2</ele>
        <time>2019-04-20T11:41:15Z</time>
      </trkpt>
      <trkpt lat="51.239672677822" lon="4.469090527193">
        <ele>6.2</ele>
        <time>2019-04-20T11:41:21Z</time>
      </trkpt>
      <trkpt lat="51.239660188791" lon="4.468777463228">
        <ele>4.6</ele>
        <time>2019-04-20T11:41:29Z</time>
      </trkpt>
      <trkpt lat="51.239649292321" lon="4.468462890521">
        <ele>2.6</ele>
        <time>2019-04-20T11:41:37Z</time>
      </trkpt>
      <trkpt lat="51.239617860196" lon="4.468171787134">
        <ele>2.4</ele>
        <time>2019-04-20T11:41:44Z</time>
      </trkpt>
      <trkpt lat="51.239600844939" lon="4.467885964344">
        <ele>1.2</ele>
        <time>2019-04-20T11:41:51Z</time>
      </trkpt>
      <trkpt lat="51.2395689099" lon="4.467565943402">
        <ele>0</ele>
        <time>2019-04-20T11:41:59Z</time>
      </trkpt>
      <trkpt lat="51.239580141646" lon="4.467255896921">
        <ele>0</ele>
        <time>2019-04-20T11:42:07Z</time>
      </trkpt>
      <trkpt lat="51.23954544058" lon="4.466949957571">
        <ele>0</ele>
        <time>2019-04-20T11:42:15Z</time>
      </trkpt>
      <trkpt lat="51.239529347332" lon="4.466633876122">
        <ele>0</ele>
        <time>2019-04-20T11:42:23Z</time>
      </trkpt>
      <trkpt lat="51.239483749796" lon="4.466321566528">
        <ele>2</ele>
        <time>2019-04-20T11:42:30Z</time>
      </trkpt>
      <trkpt lat="51.239446282703" lon="4.466013615522">
        <ele>4.4</ele>
        <time>2019-04-20T11:42:37Z</time>
      </trkpt>
      <trkpt lat="51.239430943826" lon="4.465720332841">
        <ele>4.6</ele>
        <time>2019-04-20T11:42:44Z</time>
      </trkpt>
      <trkpt lat="51.239418957709" lon="4.465429816187">
        <ele>4.2</ele>
        <time>2019-04-20T11:42:51Z</time>
      </trkpt>
      <trkpt lat="51.239401104262" lon="4.465129911805">
        <ele>2.8</ele>
        <time>2019-04-20T11:42:58Z</time>
      </trkpt>
      <trkpt lat="51.239378389313" lon="4.464824643007">
        <ele>2.8</ele>
        <time>2019-04-20T11:43:05Z</time>
      </trkpt>
      <trkpt lat="51.239354836174" lon="4.46452851048">
        <ele>1.6</ele>
        <time>2019-04-20T11:43:12Z</time>
      </trkpt>
      <trkpt lat="51.239338994383" lon="4.464230701573">
        <ele>0.6</ele>
        <time>2019-04-20T11:43:20Z</time>
      </trkpt>
      <trkpt lat="51.239311669389" lon="4.463944124412">
        <ele>4.4</ele>
        <time>2019-04-20T11:43:27Z</time>
      </trkpt>
      <trkpt lat="51.239293732123" lon="4.463622762366">
        <ele>4.2</ele>
        <time>2019-04-20T11:43:35Z</time>
      </trkpt>
      <trkpt lat="51.239288032431" lon="4.46333073697">
        <ele>1.8</ele>
        <time>2019-04-20T11:43:43Z</time>
      </trkpt>
      <trkpt lat="51.239273783201" lon="4.46303653228">
        <ele>0.4</ele>
        <time>2019-04-20T11:43:51Z</time>
      </trkpt>
      <trkpt lat="51.239250146243" lon="4.462727407808">
        <ele>0</ele>
        <time>2019-04-20T11:43:59Z</time>
      </trkpt>
      <trkpt lat="51.239216115729" lon="4.462435633869">
        <ele>0</ele>
        <time>2019-04-20T11:44:06Z</time>
      </trkpt>
      <trkpt lat="51.239182588129" lon="4.462130197433">
        <ele>0</ele>
        <time>2019-04-20T11:44:13Z</time>
      </trkpt>
      <trkpt lat="51.239161633379" lon="4.461834986915">
        <ele>0</ele>
        <time>2019-04-20T11:44:20Z</time>
      </trkpt>
      <trkpt lat="51.239120226793" lon="4.46153784856">
        <ele>0</ele>
        <time>2019-04-20T11:44:28Z</time>
      </trkpt>
      <trkpt lat="51.239068761927" lon="4.461241883671">
        <ele>0</ele>
        <time>2019-04-20T11:44:36Z</time>
      </trkpt>
      <trkpt lat="51.239026433332" lon="4.460940554366">
        <ele>0.4</ele>
        <time>2019-04-20T11:44:44Z</time>
      </trkpt>
      <trkpt lat="51.239000700899" lon="4.460621874528">
        <ele>0</ele>
        <time>2019-04-20T11:44:53Z</time>
      </trkpt>
      <trkpt lat="51.238954935725" lon="4.460313420608">
        <ele>0</ele>
        <time>2019-04-20T11:45:02Z</time>
      </trkpt>
      <trkpt lat="51.238954684268" lon="4.460281569388">
        <ele>0</ele>
        <time>2019-04-20T11:45:03Z</time>
      </trkpt>
      <trkpt lat="51.23900145527" lon="4.460152571947">
        <ele>0</ele>
        <time>2019-04-20T11:45:07Z</time>
      </trkpt>
      <trkpt lat="51.238978572683" lon="4.459844537122">
        <ele>0</ele>
        <time>2019-04-20T11:45:15Z</time>
      </trkpt>
      <trkpt lat="51.238930879672" lon="4.459554858658">
        <ele>0</ele>
        <time>2019-04-20T11:45:23Z</time>
      </trkpt>
      <trkpt lat="51.238874218028" lon="4.459237100829">
        <ele>0</ele>
        <time>2019-04-20T11:45:31Z</time>
      </trkpt>
      <trkpt lat="51.238812778701" lon="4.458931329117">
        <ele>0</ele>
        <time>2019-04-20T11:45:39Z</time>
      </trkpt>
      <trkpt lat="51.238758715446" lon="4.458637375884">
        <ele>0</ele>
        <time>2019-04-20T11:45:47Z</time>
      </trkpt>
      <trkpt lat="51.238705741838" lon="4.458337303864">
        <ele>0</ele>
        <time>2019-04-20T11:45:55Z</time>
      </trkpt>
      <trkpt lat="51.238631897299" lon="4.458033543808">
        <ele>0</ele>
        <time>2019-04-20T11:46:03Z</time>
      </trkpt>
      <trkpt lat="51.238594178749" lon="4.457711846486">
        <ele>0</ele>
        <time>2019-04-20T11:46:12Z</time>
      </trkpt>
      <trkpt lat="51.238543719711" lon="4.457404398394">
        <ele>0</ele>
        <time>2019-04-20T11:46:19Z</time>
      </trkpt>
      <trkpt lat="51.238444729472" lon="4.45683057352">
        <ele>0</ele>
        <time>2019-04-20T11:46:34Z</time>
      </trkpt>
      <trkpt lat="51.238377422815" lon="4.45654558892">
        <ele>0</ele>
        <time>2019-04-20T11:46:42Z</time>
      </trkpt>
      <trkpt lat="51.238317995144" lon="4.456253647343">
        <ele>0</ele>
        <time>2019-04-20T11:46:50Z</time>
      </trkpt>
      <trkpt lat="51.238278348757" lon="4.455968746562">
        <ele>0</ele>
        <time>2019-04-20T11:46:58Z</time>
      </trkpt>
      <trkpt lat="51.238228560271" lon="4.455686611808">
        <ele>0</ele>
        <time>2019-04-20T11:47:06Z</time>
      </trkpt>
      <trkpt lat="51.238176508672" lon="4.455389221996">
        <ele>0</ele>
        <time>2019-04-20T11:47:14Z</time>
      </trkpt>
      <trkpt lat="51.238117583915" lon="4.455085294302">
        <ele>0</ele>
        <time>2019-04-20T11:47:22Z</time>
      </trkpt>
      <trkpt lat="51.238058994434" lon="4.454797459856">
        <ele>0</ele>
        <time>2019-04-20T11:47:30Z</time>
      </trkpt>
      <trkpt lat="51.238007781025" lon="4.454518594043">
        <ele>0</ele>
        <time>2019-04-20T11:47:37Z</time>
      </trkpt>
      <trkpt lat="51.238111968042" lon="4.454279374617">
        <ele>0</ele>
        <time>2019-04-20T11:47:45Z</time>
      </trkpt>
      <trkpt lat="51.238303578276" lon="4.454194130694">
        <ele>0</ele>
        <time>2019-04-20T11:47:53Z</time>
      </trkpt>
      <trkpt lat="51.238491249017" lon="4.454068821289">
        <ele>0</ele>
        <time>2019-04-20T11:48:01Z</time>
      </trkpt>
      <trkpt lat="51.238660731035" lon="4.453910822474">
        <ele>0</ele>
        <time>2019-04-20T11:48:09Z</time>
      </trkpt>
      <trkpt lat="51.238830296872" lon="4.453749303261">
        <ele>0</ele>
        <time>2019-04-20T11:48:17Z</time>
      </trkpt>
      <trkpt lat="51.238996593768" lon="4.453601362726">
        <ele>0</ele>
        <time>2019-04-20T11:48:25Z</time>
      </trkpt>
      <trkpt lat="51.239183593957" lon="4.45347278438">
        <ele>0</ele>
        <time>2019-04-20T11:48:33Z</time>
      </trkpt>
      <trkpt lat="51.239367911938" lon="4.453369603191">
        <ele>0</ele>
        <time>2019-04-20T11:48:41Z</time>
      </trkpt>
      <trkpt lat="51.23952448583" lon="4.453211017643">
        <ele>1.6</ele>
        <time>2019-04-20T11:48:49Z</time>
      </trkpt>
      <trkpt lat="51.239685753586" lon="4.453064502031">
        <ele>2.6</ele>
        <time>2019-04-20T11:48:57Z</time>
      </trkpt>
      <trkpt lat="51.239853475405" lon="4.452944137947">
        <ele>2</ele>
        <time>2019-04-20T11:49:05Z</time>
      </trkpt>
      <trkpt lat="51.240025052898" lon="4.452804914588">
        <ele>0</ele>
        <time>2019-04-20T11:49:14Z</time>
      </trkpt>
      <trkpt lat="51.240206856309" lon="4.45267566569">
        <ele>0</ele>
        <time>2019-04-20T11:49:23Z</time>
      </trkpt>
      <trkpt lat="51.240382121838" lon="4.452539292177">
        <ele>0</ele>
        <time>2019-04-20T11:49:31Z</time>
      </trkpt>
      <trkpt lat="51.240554369883" lon="4.45238313738">
        <ele>0</ele>
        <time>2019-04-20T11:49:39Z</time>
      </trkpt>
      <trkpt lat="51.240690156663" lon="4.452160514116">
        <ele>0</ele>
        <time>2019-04-20T11:49:48Z</time>
      </trkpt>
      <trkpt lat="51.240869194047" lon="4.452013830866">
        <ele>0</ele>
        <time>2019-04-20T11:49:57Z</time>
      </trkpt>
      <trkpt lat="51.241055272227" lon="4.451894137334">
        <ele>0</ele>
        <time>2019-04-20T11:50:06Z</time>
      </trkpt>
      <trkpt lat="51.241223748417" lon="4.451767738282">
        <ele>0</ele>
        <time>2019-04-20T11:50:14Z</time>
      </trkpt>
      <trkpt lat="51.241387614562" lon="4.45162960457">
        <ele>0</ele>
        <time>2019-04-20T11:50:22Z</time>
      </trkpt>
      <trkpt lat="51.241563215367" lon="4.451526674838">
        <ele>0</ele>
        <time>2019-04-20T11:50:30Z</time>
      </trkpt>
      <trkpt lat="51.24171048535" lon="4.451444280761">
        <ele>0</ele>
        <time>2019-04-20T11:50:38Z</time>
      </trkpt>
      <trkpt lat="51.241674275542" lon="4.451406562211">
        <ele>0</ele>
        <time>2019-04-20T11:50:41Z</time>
      </trkpt>
      <trkpt lat="51.241505547895" lon="4.451528015942">
        <ele>0</ele>
        <time>2019-04-20T11:50:50Z</time>
      </trkpt>
      <trkpt lat="51.241333383669" lon="4.451670256785">
        <ele>0</ele>
        <time>2019-04-20T11:50:58Z</time>
      </trkpt>
      <trkpt lat="51.241159375425" lon="4.451798751312">
        <ele>0</ele>
        <time>2019-04-20T11:51:06Z</time>
      </trkpt>
      <trkpt lat="51.240996431289" lon="4.451930263323">
        <ele>0</ele>
        <time>2019-04-20T11:51:14Z</time>
      </trkpt>
      <trkpt lat="51.240819824656" lon="4.452079209686">
        <ele>0</ele>
        <time>2019-04-20T11:51:22Z</time>
      </trkpt>
      <trkpt lat="51.240657383434" lon="4.452213990638">
        <ele>0</ele>
        <time>2019-04-20T11:51:30Z</time>
      </trkpt>
      <trkpt lat="51.240494439298" lon="4.452347346667">
        <ele>0</ele>
        <time>2019-04-20T11:51:38Z</time>
      </trkpt>
      <trkpt lat="51.24032160452" lon="4.452480115963">
        <ele>0</ele>
        <time>2019-04-20T11:51:46Z</time>
      </trkpt>
      <trkpt lat="51.240156229633" lon="4.45260274316">
        <ele>0.6</ele>
        <time>2019-04-20T11:51:54Z</time>
      </trkpt>
      <trkpt lat="51.239971995471" lon="4.452732159696">
        <ele>0.2</ele>
        <time>2019-04-20T11:52:03Z</time>
      </trkpt>
      <trkpt lat="51.239791700802" lon="4.452861576232">
        <ele>0</ele>
        <time>2019-04-20T11:52:12Z</time>
      </trkpt>
      <trkpt lat="51.239613585427" lon="4.452995602813">
        <ele>0</ele>
        <time>2019-04-20T11:52:21Z</time>
      </trkpt>
      <trkpt lat="51.239438236079" lon="4.453119571114">
        <ele>0</ele>
        <time>2019-04-20T11:52:30Z</time>
      </trkpt>
      <trkpt lat="51.239267580595" lon="4.453230631289">
        <ele>0.2</ele>
        <time>2019-04-20T11:52:38Z</time>
      </trkpt>
      <trkpt lat="51.23908108332" lon="4.453358203807">
        <ele>1.6</ele>
        <time>2019-04-20T11:52:47Z</time>
      </trkpt>
      <trkpt lat="51.238792829779" lon="4.453561213425">
        <ele>4.4</ele>
        <time>2019-04-20T11:53:01Z</time>
      </trkpt>
      <trkpt lat="51.23862678434" lon="4.453683086251">
        <ele>4.4</ele>
        <time>2019-04-20T11:53:09Z</time>
      </trkpt>
      <trkpt lat="51.238458978702" lon="4.453790542209">
        <ele>2.2</ele>
        <time>2019-04-20T11:53:17Z</time>
      </trkpt>
      <trkpt lat="51.238274995997" lon="4.453906715343">
        <ele>2.8</ele>
        <time>2019-04-20T11:53:25Z</time>
      </trkpt>
      <trkpt lat="51.238107525635" lon="4.454017188785">
        <ele>3</ele>
        <time>2019-04-20T11:53:33Z</time>
      </trkpt>
      <trkpt lat="51.237931589554" lon="4.454131182625">
        <ele>5</ele>
        <time>2019-04-20T11:53:42Z</time>
      </trkpt>
      <trkpt lat="51.237755988749" lon="4.454222796792">
        <ele>4.4</ele>
        <time>2019-04-20T11:53:50Z</time>
      </trkpt>
      <trkpt lat="51.237580639401" lon="4.454334192243">
        <ele>3.8</ele>
        <time>2019-04-20T11:53:58Z</time>
      </trkpt>
      <trkpt lat="51.23739045409" lon="4.454452460852">
        <ele>4.2</ele>
        <time>2019-04-20T11:54:06Z</time>
      </trkpt>
      <trkpt lat="51.23721946333" lon="4.454564610674">
        <ele>4.4</ele>
        <time>2019-04-20T11:54:13Z</time>
      </trkpt>
      <trkpt lat="51.237045371267" lon="4.454668630053">
        <ele>5</ele>
        <time>2019-04-20T11:54:21Z</time>
      </trkpt>
      <trkpt lat="51.236880415475" lon="4.454794861467">
        <ele>4.6</ele>
        <time>2019-04-20T11:54:29Z</time>
      </trkpt>
      <trkpt lat="51.236700539901" lon="4.454938527233">
        <ele>2.8</ele>
        <time>2019-04-20T11:54:37Z</time>
      </trkpt>
      <trkpt lat="51.236521167241" lon="4.455063082267">
        <ele>1</ele>
        <time>2019-04-20T11:54:45Z</time>
      </trkpt>
      <trkpt lat="51.236344560608" lon="4.455183027256">
        <ele>0</ele>
        <time>2019-04-20T11:54:53Z</time>
      </trkpt>
      <trkpt lat="51.236173737486" lon="4.455313784896">
        <ele>0.2</ele>
        <time>2019-04-20T11:55:01Z</time>
      </trkpt>
      <trkpt lat="51.2359982205" lon="4.455455522825">
        <ele>1</ele>
        <time>2019-04-20T11:55:09Z</time>
      </trkpt>
      <trkpt lat="51.23582974431" lon="4.455579742583">
        <ele>1.6</ele>
        <time>2019-04-20T11:55:17Z</time>
      </trkpt>
      <trkpt lat="51.235649198184" lon="4.455703459427">
        <ele>3.4</ele>
        <time>2019-04-20T11:55:25Z</time>
      </trkpt>
      <trkpt lat="51.235474687026" lon="4.45583731837">
        <ele>5.2</ele>
        <time>2019-04-20T11:55:33Z</time>
      </trkpt>
      <trkpt lat="51.235309898872" lon="4.455967824553">
        <ele>3.4</ele>
        <time>2019-04-20T11:55:41Z</time>
      </trkpt>
      <trkpt lat="51.235141674139" lon="4.456104365704">
        <ele>2</ele>
        <time>2019-04-20T11:55:49Z</time>
      </trkpt>
      <trkpt lat="51.23497730508" lon="4.456226573806">
        <ele>0.4</ele>
        <time>2019-04-20T11:55:57Z</time>
      </trkpt>
      <trkpt lat="51.23480463794" lon="4.456360097473">
        <ele>0.4</ele>
        <time>2019-04-20T11:56:05Z</time>
      </trkpt>
      <trkpt lat="51.234649991885" lon="4.456509630569">
        <ele>4.2</ele>
        <time>2019-04-20T11:56:12Z</time>
      </trkpt>
      <trkpt lat="51.234472630881" lon="4.456657403466">
        <ele>4.2</ele>
        <time>2019-04-20T11:56:20Z</time>
      </trkpt>
      <trkpt lat="51.234297952085" lon="4.456788244925">
        <ele>3.2</ele>
        <time>2019-04-20T11:56:28Z</time>
      </trkpt>
      <trkpt lat="51.234127296601" lon="4.456948590672">
        <ele>5</ele>
        <time>2019-04-20T11:56:36Z</time>
      </trkpt>
      <trkpt lat="51.233956808755" lon="4.457097537035">
        <ele>6</ele>
        <time>2019-04-20T11:56:44Z</time>
      </trkpt>
      <trkpt lat="51.233795792456" lon="4.457232737082">
        <ele>8</ele>
        <time>2019-04-20T11:56:51Z</time>
      </trkpt>
      <trkpt lat="51.23362865737" lon="4.457385287662">
        <ele>8.6</ele>
        <time>2019-04-20T11:56:59Z</time>
      </trkpt>
      <trkpt lat="51.233472921668" lon="4.457531551817">
        <ele>6</ele>
        <time>2019-04-20T11:57:07Z</time>
      </trkpt>
      <trkpt lat="51.233308552609" lon="4.457666835683">
        <ele>4</ele>
        <time>2019-04-20T11:57:15Z</time>
      </trkpt>
      <trkpt lat="51.23317100563" lon="4.457865319075">
        <ele>8.2</ele>
        <time>2019-04-20T11:57:23Z</time>
      </trkpt>
      <trkpt lat="51.23298408926" lon="4.457949640989">
        <ele>8.2</ele>
        <time>2019-04-20T11:57:32Z</time>
      </trkpt>
      <trkpt lat="51.232793484854" lon="4.457935224121">
        <ele>5</ele>
        <time>2019-04-20T11:57:41Z</time>
      </trkpt>
      <trkpt lat="51.232614279832" lon="4.457876969916">
        <ele>4.6</ele>
        <time>2019-04-20T11:57:49Z</time>
      </trkpt>
      <trkpt lat="51.232473463912" lon="4.457873533337">
        <ele>1.8</ele>
        <time>2019-04-20T11:57:55Z</time>
      </trkpt>
      <trkpt lat="51.23227917147" lon="4.457846962714">
        <ele>0</ele>
        <time>2019-04-20T11:58:04Z</time>
      </trkpt>
      <trkpt lat="51.232111617289" lon="4.457975121965">
        <ele>0</ele>
        <time>2019-04-20T11:58:12Z</time>
      </trkpt>
      <trkpt lat="51.232101223733" lon="4.457993310688">
        <ele>0</ele>
        <time>2019-04-20T11:58:13Z</time>
      </trkpt>
      <trkpt lat="51.232073228187" lon="4.458054247101">
        <ele>0</ele>
        <time>2019-04-20T11:58:16Z</time>
      </trkpt>
      <trkpt lat="51.231890921862" lon="4.458191961718">
        <ele>0</ele>
        <time>2019-04-20T11:58:25Z</time>
      </trkpt>
      <trkpt lat="51.231720182559" lon="4.458304614454">
        <ele>0</ele>
        <time>2019-04-20T11:58:32Z</time>
      </trkpt>
      <trkpt lat="51.231546761048" lon="4.458438557216">
        <ele>0</ele>
        <time>2019-04-20T11:58:40Z</time>
      </trkpt>
      <trkpt lat="51.231508791041" lon="4.458501421466">
        <ele>0</ele>
        <time>2019-04-20T11:58:43Z</time>
      </trkpt>
      <trkpt lat="51.231581965028" lon="4.458768133524">
        <ele>0</ele>
        <time>2019-04-20T11:58:51Z</time>
      </trkpt>
      <trkpt lat="51.231673076281" lon="4.459060661834">
        <ele>0</ele>
        <time>2019-04-20T11:58:59Z</time>
      </trkpt>
      <trkpt lat="51.231744657707" lon="4.459328547358">
        <ele>0.4</ele>
        <time>2019-04-20T11:59:06Z</time>
      </trkpt>
      <trkpt lat="51.231828392888" lon="4.459925087181">
        <ele>4.4</ele>
        <time>2019-04-20T11:59:21Z</time>
      </trkpt>
      <trkpt lat="51.231869380379" lon="4.460221303527">
        <ele>3.6</ele>
        <time>2019-04-20T11:59:29Z</time>
      </trkpt>
      <trkpt lat="51.231926628756" lon="4.460504192652">
        <ele>1.6</ele>
        <time>2019-04-20T11:59:37Z</time>
      </trkpt>
      <trkpt lat="51.231963006202" lon="4.460815161142">
        <ele>0</ele>
        <time>2019-04-20T11:59:45Z</time>
      </trkpt>
      <trkpt lat="51.232013046145" lon="4.461109365832">
        <ele>0</ele>
        <time>2019-04-20T11:59:53Z</time>
      </trkpt>
      <trkpt lat="51.232079849888" lon="4.461411868603">
        <ele>0</ele>
        <time>2019-04-20T12:00:01Z</time>
      </trkpt>
      <trkpt lat="51.232126034157" lon="4.46172225036">
        <ele>0</ele>
        <time>2019-04-20T12:00:09Z</time>
      </trkpt>
      <trkpt lat="51.232177079928" lon="4.462032129203">
        <ele>0</ele>
        <time>2019-04-20T12:00:17Z</time>
      </trkpt>
      <trkpt lat="51.232214966116" lon="4.462332787956">
        <ele>0</ele>
        <time>2019-04-20T12:00:25Z</time>
      </trkpt>
      <trkpt lat="51.232277075995" lon="4.46263168651">
        <ele>0</ele>
        <time>2019-04-20T12:00:33Z</time>
      </trkpt>
      <trkpt lat="51.232327702671" lon="4.462926394114">
        <ele>0</ele>
        <time>2019-04-20T12:00:41Z</time>
      </trkpt>
      <trkpt lat="51.232374473673" lon="4.463232165826">
        <ele>0</ele>
        <time>2019-04-20T12:00:49Z</time>
      </trkpt>
      <trkpt lat="51.232430632403" lon="4.463508600888">
        <ele>0</ele>
        <time>2019-04-20T12:00:56Z</time>
      </trkpt>
      <trkpt lat="51.23245770594" lon="4.463820994301">
        <ele>0.6</ele>
        <time>2019-04-20T12:01:04Z</time>
      </trkpt>
      <trkpt lat="51.232438930484" lon="4.464137830121">
        <ele>2.8</ele>
        <time>2019-04-20T12:01:12Z</time>
      </trkpt>
      <trkpt lat="51.232423256331" lon="4.464156857034">
        <ele>2.8</ele>
        <time>2019-04-20T12:01:13Z</time>
      </trkpt>
      <trkpt lat="51.23223977654" lon="4.464070942559">
        <ele>4</ele>
        <time>2019-04-20T12:01:21Z</time>
      </trkpt>
      <trkpt lat="51.232082783553" lon="4.463899365066">
        <ele>4</ele>
        <time>2019-04-20T12:01:28Z</time>
      </trkpt>
      <trkpt lat="51.231917157209" lon="4.463742791174">
        <ele>4.6</ele>
        <time>2019-04-20T12:01:36Z</time>
      </trkpt>
      <trkpt lat="51.231747004639" lon="4.463629467886">
        <ele>1.4</ele>
        <time>2019-04-20T12:01:43Z</time>
      </trkpt>
      <trkpt lat="51.231581378295" lon="4.463505583404">
        <ele>0</ele>
        <time>2019-04-20T12:01:50Z</time>
      </trkpt>
      <trkpt lat="51.231537457139" lon="4.463493513468">
        <ele>0</ele>
        <time>2019-04-20T12:01:52Z</time>
      </trkpt>
      <trkpt lat="51.231436874339" lon="4.463748323228">
        <ele>0</ele>
        <time>2019-04-20T12:02:02Z</time>
      </trkpt>
      <trkpt lat="51.231331262399" lon="4.463996846563">
        <ele>0</ele>
        <time>2019-04-20T12:02:11Z</time>
      </trkpt>
      <trkpt lat="51.231345679267" lon="4.464285770656">
        <ele>0</ele>
        <time>2019-04-20T12:02:19Z</time>
      </trkpt>
      <trkpt lat="51.23133285496" lon="4.46448324822">
        <ele>0</ele>
        <time>2019-04-20T12:02:25Z</time>
      </trkpt>
      <trkpt lat="51.231401167445" lon="4.464759264187">
        <ele>0</ele>
        <time>2019-04-20T12:02:34Z</time>
      </trkpt>
      <trkpt lat="51.231374429184" lon="4.465070987048">
        <ele>0</ele>
        <time>2019-04-20T12:02:42Z</time>
      </trkpt>
      <trkpt lat="51.231325478888" lon="4.465346500101">
        <ele>0</ele>
        <time>2019-04-20T12:02:50Z</time>
      </trkpt>
      <trkpt lat="51.231269403977" lon="4.465658139143">
        <ele>0</ele>
        <time>2019-04-20T12:02:58Z</time>
      </trkpt>
      <trkpt lat="51.231207713193" lon="4.465949410168">
        <ele>0</ele>
        <time>2019-04-20T12:03:06Z</time>
      </trkpt>
      <trkpt lat="51.231133952473" lon="4.466228443619">
        <ele>0</ele>
        <time>2019-04-20T12:03:14Z</time>
      </trkpt>
      <trkpt lat="51.231115428474" lon="4.466239507727">
        <ele>0</ele>
        <time>2019-04-20T12:03:15Z</time>
      </trkpt>
      <trkpt lat="51.230928931199" lon="4.466235735872">
        <ele>0</ele>
        <time>2019-04-20T12:03:22Z</time>
      </trkpt>
      <trkpt lat="51.230748720349" lon="4.466332462998">
        <ele>0</ele>
        <time>2019-04-20T12:03:30Z</time>
      </trkpt>
      <trkpt lat="51.230697004026" lon="4.466620297444">
        <ele>0</ele>
        <time>2019-04-20T12:03:38Z</time>
      </trkpt>
      <trkpt lat="51.230688454488" lon="4.466907461338">
        <ele>0</ele>
        <time>2019-04-20T12:03:45Z</time>
      </trkpt>
      <trkpt lat="51.230672947973" lon="4.467218932742">
        <ele>0</ele>
        <time>2019-04-20T12:03:53Z</time>
      </trkpt>
      <trkpt lat="51.230674289077" lon="4.46736243087">
        <ele>0</ele>
        <time>2019-04-20T12:03:57Z</time>
      </trkpt>
      <trkpt lat="51.230488965268" lon="4.467432922649">
        <ele>0</ele>
        <time>2019-04-20T12:04:05Z</time>
      </trkpt>
      <trkpt lat="51.230309005875" lon="4.467476759986">
        <ele>0</ele>
        <time>2019-04-20T12:04:12Z</time>
      </trkpt>
      <trkpt lat="51.230132315423" lon="4.467537109666">
        <ele>0</ele>
        <time>2019-04-20T12:04:19Z</time>
      </trkpt>
      <trkpt lat="51.2299297249" lon="4.467562506823">
        <ele>0</ele>
        <time>2019-04-20T12:04:27Z</time>
      </trkpt>
      <trkpt lat="51.229741635064" lon="4.46761388787">
        <ele>0</ele>
        <time>2019-04-20T12:04:34Z</time>
      </trkpt>
      <trkpt lat="51.229541307654" lon="4.467665771831">
        <ele>0</ele>
        <time>2019-04-20T12:04:42Z</time>
      </trkpt>
      <trkpt lat="51.229358749872" lon="4.467637105733">
        <ele>0</ele>
        <time>2019-04-20T12:04:49Z</time>
      </trkpt>
      <trkpt lat="51.229162194317" lon="4.467565691945">
        <ele>0</ele>
        <time>2019-04-20T12:04:57Z</time>
      </trkpt>
      <trkpt lat="51.228963375649" lon="4.467490254845">
        <ele>0</ele>
        <time>2019-04-20T12:05:05Z</time>
      </trkpt>
      <trkpt lat="51.228761958592" lon="4.467465947335">
        <ele>0</ele>
        <time>2019-04-20T12:05:13Z</time>
      </trkpt>
      <trkpt lat="51.228401117797" lon="4.467369639304">
        <ele>2.2</ele>
        <time>2019-04-20T12:05:27Z</time>
      </trkpt>
      <trkpt lat="51.228222583327" lon="4.467273163635">
        <ele>6.6</ele>
        <time>2019-04-20T12:05:35Z</time>
      </trkpt>
      <trkpt lat="51.228043462124" lon="4.467155733216">
        <ele>12</ele>
        <time>2019-04-20T12:05:43Z</time>
      </trkpt>
      <trkpt lat="51.227876075581" lon="4.466974600357">
        <ele>11.8</ele>
        <time>2019-04-20T12:05:51Z</time>
      </trkpt>
      <trkpt lat="51.227788233269" lon="4.466729345963">
        <ele>9.8</ele>
        <time>2019-04-20T12:05:58Z</time>
      </trkpt>
      <trkpt lat="51.227810361485" lon="4.466413432152">
        <ele>4.4</ele>
        <time>2019-04-20T12:06:06Z</time>
      </trkpt>
      <trkpt lat="51.227805919078" lon="4.46610346949">
        <ele>0</ele>
        <time>2019-04-20T12:06:14Z</time>
      </trkpt>
      <trkpt lat="51.227786305432" lon="4.465800463805">
        <ele>0</ele>
        <time>2019-04-20T12:06:22Z</time>
      </trkpt>
      <trkpt lat="51.227851684252" lon="4.465475413723">
        <ele>0</ele>
        <time>2019-04-20T12:06:30Z</time>
      </trkpt>
      <trkpt lat="51.22784766094" lon="4.465185399983">
        <ele>1.2</ele>
        <time>2019-04-20T12:06:38Z</time>
      </trkpt>
      <trkpt lat="51.227804242698" lon="4.464876778425">
        <ele>0.8</ele>
        <time>2019-04-20T12:06:46Z</time>
      </trkpt>
      <trkpt lat="51.227778677903" lon="4.464585255943">
        <ele>0</ele>
        <time>2019-04-20T12:06:53Z</time>
      </trkpt>
      <trkpt lat="51.227834333719" lon="4.464291470348">
        <ele>6</ele>
        <time>2019-04-20T12:07:01Z</time>
      </trkpt>
      <trkpt lat="51.227798626825" lon="4.464001875703">
        <ele>5</ele>
        <time>2019-04-20T12:07:08Z</time>
      </trkpt>
      <trkpt lat="51.227768116709" lon="4.463694595249">
        <ele>4</ele>
        <time>2019-04-20T12:07:16Z</time>
      </trkpt>
      <trkpt lat="51.227708353762" lon="4.463392008659">
        <ele>1</ele>
        <time>2019-04-20T12:07:24Z</time>
      </trkpt>
      <trkpt lat="51.227641214743" lon="4.463105012403">
        <ele>0</ele>
        <time>2019-04-20T12:07:32Z</time>
      </trkpt>
      <trkpt lat="51.227564855634" lon="4.462804102193">
        <ele>0</ele>
        <time>2019-04-20T12:07:40Z</time>
      </trkpt>
      <trkpt lat="51.227480198444" lon="4.462517357394">
        <ele>0</ele>
        <time>2019-04-20T12:07:48Z</time>
      </trkpt>
      <trkpt lat="51.227406689181" lon="4.46223606083">
        <ele>0</ele>
        <time>2019-04-20T12:07:56Z</time>
      </trkpt>
      <trkpt lat="51.227403839335" lon="4.461920649933">
        <ele>0</ele>
        <time>2019-04-20T12:08:04Z</time>
      </trkpt>
      <trkpt lat="51.227342064732" lon="4.461633569858">
        <ele>0</ele>
        <time>2019-04-20T12:08:12Z</time>
      </trkpt>
      <trkpt lat="51.227331252081" lon="4.461307849224">
        <ele>0.8</ele>
        <time>2019-04-20T12:08:20Z</time>
      </trkpt>
      <trkpt lat="51.227320187973" lon="4.461007358109">
        <ele>0</ele>
        <time>2019-04-20T12:08:28Z</time>
      </trkpt>
      <trkpt lat="51.227293784988" lon="4.460714578342">
        <ele>0.4</ele>
        <time>2019-04-20T12:08:36Z</time>
      </trkpt>
      <trkpt lat="51.227256988447" lon="4.460392629563">
        <ele>0.6</ele>
        <time>2019-04-20T12:08:44Z</time>
      </trkpt>
      <trkpt lat="51.227189178876" lon="4.460099430701">
        <ele>0.8</ele>
        <time>2019-04-20T12:08:52Z</time>
      </trkpt>
      <trkpt lat="51.227110221378" lon="4.459828611512">
        <ele>1.4</ele>
        <time>2019-04-20T12:09:00Z</time>
      </trkpt>
      <trkpt lat="51.227061773996" lon="4.459548153138">
        <ele>0.4</ele>
        <time>2019-04-20T12:09:08Z</time>
      </trkpt>
      <trkpt lat="51.226975188969" lon="4.459325446055">
        <ele>0</ele>
        <time>2019-04-20T12:09:17Z</time>
      </trkpt>
      <trkpt lat="51.226782489088" lon="4.459401134612">
        <ele>0</ele>
        <time>2019-04-20T12:09:27Z</time>
      </trkpt>
      <trkpt lat="51.226585765895" lon="4.459500795403">
        <ele>0</ele>
        <time>2019-04-20T12:09:36Z</time>
      </trkpt>
      <trkpt lat="51.226392982195" lon="4.459586709878">
        <ele>0</ele>
        <time>2019-04-20T12:09:44Z</time>
      </trkpt>
      <trkpt lat="51.226349480134" lon="4.459565922766">
        <ele>0</ele>
        <time>2019-04-20T12:09:46Z</time>
      </trkpt>
      <trkpt lat="51.226204640902" lon="4.459367942288">
        <ele>0</ele>
        <time>2019-04-20T12:09:53Z</time>
      </trkpt>
      <trkpt lat="51.226060556041" lon="4.459149342336">
        <ele>4</ele>
        <time>2019-04-20T12:10:01Z</time>
      </trkpt>
      <trkpt lat="51.225933654075" lon="4.458937615542">
        <ele>10.2</ele>
        <time>2019-04-20T12:10:09Z</time>
      </trkpt>
      <trkpt lat="51.225961230526" lon="4.458790513197">
        <ele>7.4</ele>
        <time>2019-04-20T12:10:12Z</time>
      </trkpt>
      <trkpt lat="51.226131634553" lon="4.458613571288">
        <ele>4.4</ele>
        <time>2019-04-20T12:10:19Z</time>
      </trkpt>
      <trkpt lat="51.226294159594" lon="4.458432103153">
        <ele>3.4</ele>
        <time>2019-04-20T12:10:27Z</time>
      </trkpt>
      <trkpt lat="51.226419971913" lon="4.458172264253">
        <ele>2.8</ele>
        <time>2019-04-20T12:10:36Z</time>
      </trkpt>
      <trkpt lat="51.226592722872" lon="4.458069921254">
        <ele>3.2</ele>
        <time>2019-04-20T12:10:43Z</time>
      </trkpt>
      <trkpt lat="51.226777208491" lon="4.457951485007">
        <ele>6.6</ele>
        <time>2019-04-20T12:10:51Z</time>
      </trkpt>
      <trkpt lat="51.226847867908" lon="4.457894655725">
        <ele>8.4</ele>
        <time>2019-04-20T12:10:55Z</time>
      </trkpt>
      <trkpt lat="51.226759187406" lon="4.45761931031">
        <ele>7</ele>
        <time>2019-04-20T12:11:04Z</time>
      </trkpt>
      <trkpt lat="51.226676541872" lon="4.457337594651">
        <ele>2.4</ele>
        <time>2019-04-20T12:11:12Z</time>
      </trkpt>
      <trkpt lat="51.22663899096" lon="4.457027212894">
        <ele>1.6</ele>
        <time>2019-04-20T12:11:20Z</time>
      </trkpt>
      <trkpt lat="51.226628345947" lon="4.456714484205">
        <ele>0.6</ele>
        <time>2019-04-20T12:11:28Z</time>
      </trkpt>
      <trkpt lat="51.226670925999" lon="4.456276194654">
        <ele>0.4</ele>
        <time>2019-04-20T12:11:38Z</time>
      </trkpt>
      <trkpt lat="51.226623232988" lon="4.455988611665">
        <ele>0</ele>
        <time>2019-04-20T12:11:46Z</time>
      </trkpt>
      <trkpt lat="51.226669249619" lon="4.455674122777">
        <ele>0</ele>
        <time>2019-04-20T12:11:53Z</time>
      </trkpt>
      <trkpt lat="51.226696155518" lon="4.455360723536">
        <ele>0</ele>
        <time>2019-04-20T12:12:01Z</time>
      </trkpt>
      <trkpt lat="51.226749799678" lon="4.455082779732">
        <ele>0</ele>
        <time>2019-04-20T12:12:08Z</time>
      </trkpt>
      <trkpt lat="51.226818112163" lon="4.454766698283">
        <ele>0</ele>
        <time>2019-04-20T12:12:16Z</time>
      </trkpt>
      <trkpt lat="51.226838647818" lon="4.454733338321">
        <ele>0</ele>
        <time>2019-04-20T12:12:17Z</time>
      </trkpt>
      <trkpt lat="51.227011817872" lon="4.454589002003">
        <ele>4.6</ele>
        <time>2019-04-20T12:12:26Z</time>
      </trkpt>
      <trkpt lat="51.227193705102" lon="4.454539213517">
        <ele>8.2</ele>
        <time>2019-04-20T12:12:37Z</time>
      </trkpt>
      <trkpt lat="51.227378861273" lon="4.454629654218">
        <ele>9.4</ele>
        <time>2019-04-20T12:12:45Z</time>
      </trkpt>
      <trkpt lat="51.227502745755" lon="4.45484741598">
        <ele>7.6</ele>
        <time>2019-04-20T12:12:51Z</time>
      </trkpt>
      <trkpt lat="51.22761799688" lon="4.455111362011">
        <ele>6.2</ele>
        <time>2019-04-20T12:12:58Z</time>
      </trkpt>
      <trkpt lat="51.227736349308" lon="4.455355191482">
        <ele>5</ele>
        <time>2019-04-20T12:13:05Z</time>
      </trkpt>
      <trkpt lat="51.227850762243" lon="4.455601535523">
        <ele>6.4</ele>
        <time>2019-04-20T12:13:12Z</time>
      </trkpt>
      <trkpt lat="51.227981436064" lon="4.455798510173">
        <ele>6.6</ele>
        <time>2019-04-20T12:13:19Z</time>
      </trkpt>
      <trkpt lat="51.228060393562" lon="4.456072765941">
        <ele>2.2</ele>
        <time>2019-04-20T12:13:27Z</time>
      </trkpt>
      <trkpt lat="51.228175057954" lon="4.456327156606">
        <ele>2.8</ele>
        <time>2019-04-20T12:13:35Z</time>
      </trkpt>
      <trkpt lat="51.228285447577" lon="4.456566040756">
        <ele>7.8</ele>
        <time>2019-04-20T12:13:43Z</time>
      </trkpt>
      <trkpt lat="51.228393909363" lon="4.456794950445">
        <ele>10.2</ele>
        <time>2019-04-20T12:13:50Z</time>
      </trkpt>
      <trkpt lat="51.228526091926" lon="4.456998379158">
        <ele>7</ele>
        <time>2019-04-20T12:14:03Z</time>
      </trkpt>
      <trkpt lat="51.228559451888" lon="4.457125700219">
        <ele>6</ele>
        <time>2019-04-20T12:14:08Z</time>
      </trkpt>
      <trkpt lat="51.22860119375" lon="4.457129220617">
        <ele>6</ele>
        <time>2019-04-20T12:14:11Z</time>
      </trkpt>
      <trkpt lat="51.228796156744" lon="4.457050263119">
        <ele>6.4</ele>
        <time>2019-04-20T12:14:20Z</time>
      </trkpt>
      <trkpt lat="51.228983576028" lon="4.456972311449">
        <ele>6.8</ele>
        <time>2019-04-20T12:14:28Z</time>
      </trkpt>
      <trkpt lat="51.229173090787" lon="4.456834345375">
        <ele>8.6</ele>
        <time>2019-04-20T12:14:36Z</time>
      </trkpt>
      <trkpt lat="51.229353553094" lon="4.456702581907">
        <ele>13</ele>
        <time>2019-04-20T12:14:44Z</time>
      </trkpt>
      <trkpt lat="51.229530914098" lon="4.456615745423">
        <ele>14.6</ele>
        <time>2019-04-20T12:14:52Z</time>
      </trkpt>
      <trkpt lat="51.229730403318" lon="4.456555144286">
        <ele>15.6</ele>
        <time>2019-04-20T12:15:00Z</time>
      </trkpt>
      <trkpt lat="51.22991966662" lon="4.45649194476">
        <ele>16.8</ele>
        <time>2019-04-20T12:15:08Z</time>
      </trkpt>
      <trkpt lat="51.2301057448" lon="4.45642321318">
        <ele>17.4</ele>
        <time>2019-04-20T12:15:16Z</time>
      </trkpt>
      <trkpt lat="51.230283692537" lon="4.456362109129">
        <ele>18.4</ele>
        <time>2019-04-20T12:15:23Z</time>
      </trkpt>
      <trkpt lat="51.230479661359" lon="4.456300585983">
        <ele>18.2</ele>
        <time>2019-04-20T12:15:31Z</time>
      </trkpt>
      <trkpt lat="51.230673702344" lon="4.456256497189">
        <ele>17.4</ele>
        <time>2019-04-20T12:15:39Z</time>
      </trkpt>
      <trkpt lat="51.230861121628" lon="4.456164883022">
        <ele>18</ele>
        <time>2019-04-20T12:15:47Z</time>
      </trkpt>
      <trkpt lat="51.230978719685" lon="4.45614158134">
        <ele>18.4</ele>
        <time>2019-04-20T12:15:52Z</time>
      </trkpt>
      <trkpt lat="51.231040578107" lon="4.456269656772">
        <ele>15.2</ele>
        <time>2019-04-20T12:15:54Z</time>
      </trkpt>
      <trkpt lat="51.231131437903" lon="4.45661515869">
        <ele>8.8</ele>
        <time>2019-04-20T12:15:59Z</time>
      </trkpt>
      <trkpt lat="51.231188183366" lon="4.456940292591">
        <ele>3.8</ele>
        <time>2019-04-20T12:16:06Z</time>
      </trkpt>
      <trkpt lat="51.231204528071" lon="4.457252518366">
        <ele>4</ele>
        <time>2019-04-20T12:16:13Z</time>
      </trkpt>
      <trkpt lat="51.23121886112" lon="4.457546806875">
        <ele>3.2</ele>
        <time>2019-04-20T12:16:20Z</time>
      </trkpt>
      <trkpt lat="51.231231936884" lon="4.457864732342">
        <ele>2</ele>
        <time>2019-04-20T12:16:28Z</time>
      </trkpt>
      <trkpt lat="51.231273930203" lon="4.45815910467">
        <ele>0</ele>
        <time>2019-04-20T12:16:36Z</time>
      </trkpt>
      <trkpt lat="51.23133956048" lon="4.458424140348">
        <ele>0.2</ele>
        <time>2019-04-20T12:16:43Z</time>
      </trkpt>
      <trkpt lat="51.231485154083" lon="4.458473174463">
        <ele>1.2</ele>
        <time>2019-04-20T12:16:50Z</time>
      </trkpt>
      <trkpt lat="51.231561261735" lon="4.458779029994">
        <ele>2</ele>
        <time>2019-04-20T12:16:58Z</time>
      </trkpt>
      <trkpt lat="51.231658240318" lon="4.45905512978">
        <ele>4.6</ele>
        <time>2019-04-20T12:17:05Z</time>
      </trkpt>
      <trkpt lat="51.231702999664" lon="4.459340784932">
        <ele>3.6</ele>
        <time>2019-04-20T12:17:12Z</time>
      </trkpt>
      <trkpt lat="51.231747926648" lon="4.459620656573">
        <ele>2.4</ele>
        <time>2019-04-20T12:17:19Z</time>
      </trkpt>
      <trkpt lat="51.231806683767" lon="4.459932211796">
        <ele>1.8</ele>
        <time>2019-04-20T12:17:27Z</time>
      </trkpt>
      <trkpt lat="51.231920845245" lon="4.460394808857">
        <ele>2.4</ele>
        <time>2019-04-20T12:17:39Z</time>
      </trkpt>
      <trkpt lat="51.231957977062" lon="4.460674764317">
        <ele>0.6</ele>
        <time>2019-04-20T12:17:46Z</time>
      </trkpt>
      <trkpt lat="51.231954624302" lon="4.460983469694">
        <ele>1.8</ele>
        <time>2019-04-20T12:17:54Z</time>
      </trkpt>
      <trkpt lat="51.231910451689" lon="4.461289911958">
        <ele>5.4</ele>
        <time>2019-04-20T12:18:03Z</time>
      </trkpt>
      <trkpt lat="51.231896705373" lon="4.461334503666">
        <ele>4.8</ele>
        <time>2019-04-20T12:18:05Z</time>
      </trkpt>
      <trkpt lat="51.231735437617" lon="4.461500884381">
        <ele>0.6</ele>
        <time>2019-04-20T12:18:14Z</time>
      </trkpt>
      <trkpt lat="51.231671316082" lon="4.461774972511">
        <ele>0</ele>
        <time>2019-04-20T12:18:21Z</time>
      </trkpt>
      <trkpt lat="51.231655306653" lon="4.462074541617">
        <ele>0</ele>
        <time>2019-04-20T12:18:29Z</time>
      </trkpt>
      <trkpt lat="51.231688750434" lon="4.462367321384">
        <ele>0</ele>
        <time>2019-04-20T12:18:37Z</time>
      </trkpt>
      <trkpt lat="51.231695875049" lon="4.462682313186">
        <ele>0</ele>
        <time>2019-04-20T12:18:46Z</time>
      </trkpt>
      <trkpt lat="51.231730659934" lon="4.462969644718">
        <ele>0</ele>
        <time>2019-04-20T12:18:54Z</time>
      </trkpt>
      <trkpt lat="51.23160107576" lon="4.463187909394">
        <ele>0</ele>
        <time>2019-04-20T12:19:02Z</time>
      </trkpt>
      <trkpt lat="51.231471407767" lon="4.46341874692">
        <ele>0</ele>
        <time>2019-04-20T12:19:08Z</time>
      </trkpt>
      <trkpt lat="51.231385828568" lon="4.463669617187">
        <ele>0</ele>
        <time>2019-04-20T12:19:14Z</time>
      </trkpt>
      <trkpt lat="51.231346433638" lon="4.463993493803">
        <ele>0</ele>
        <time>2019-04-20T12:19:22Z</time>
      </trkpt>
      <trkpt lat="51.231359844678" lon="4.464284681009">
        <ele>0</ele>
        <time>2019-04-20T12:19:29Z</time>
      </trkpt>
      <trkpt lat="51.231205198623" lon="4.464453660113">
        <ele>0</ele>
        <time>2019-04-20T12:19:38Z</time>
      </trkpt>
      <trkpt lat="51.231017276425" lon="4.464539993683">
        <ele>0</ele>
        <time>2019-04-20T12:19:45Z</time>
      </trkpt>
      <trkpt lat="51.230828180761" lon="4.46460562396">
        <ele>0</ele>
        <time>2019-04-20T12:19:52Z</time>
      </trkpt>
      <trkpt lat="51.230630284102" lon="4.464598666983">
        <ele>3</ele>
        <time>2019-04-20T12:20:00Z</time>
      </trkpt>
      <trkpt lat="51.230509584742" lon="4.464384928533">
        <ele>4.4</ele>
        <time>2019-04-20T12:20:08Z</time>
      </trkpt>
      <trkpt lat="51.230425346647" lon="4.464100782123">
        <ele>2.4</ele>
        <time>2019-04-20T12:20:16Z</time>
      </trkpt>
      <trkpt lat="51.230320405259" lon="4.463878494135">
        <ele>2</ele>
        <time>2019-04-20T12:20:24Z</time>
      </trkpt>
      <trkpt lat="51.230159556598" lon="4.463983267885">
        <ele>2.2</ele>
        <time>2019-04-20T12:20:34Z</time>
      </trkpt>
      <trkpt lat="51.229992253874" lon="4.464112852059">
        <ele>0.4</ele>
        <time>2019-04-20T12:20:42Z</time>
      </trkpt>
      <trkpt lat="51.229808690264" lon="4.464166999133">
        <ele>0</ele>
        <time>2019-04-20T12:20:49Z</time>
      </trkpt>
      <trkpt lat="51.229623366455" lon="4.464205304416">
        <ele>0</ele>
        <time>2019-04-20T12:20:56Z</time>
      </trkpt>
      <trkpt lat="51.22942429633" lon="4.464173453196">
        <ele>0</ele>
        <time>2019-04-20T12:21:04Z</time>
      </trkpt>
      <trkpt lat="51.229229584793" lon="4.464196754878">
        <ele>0</ele>
        <time>2019-04-20T12:21:12Z</time>
      </trkpt>
      <trkpt lat="51.229045350631" lon="4.46428962633">
        <ele>0</ele>
        <time>2019-04-20T12:21:19Z</time>
      </trkpt>
      <trkpt lat="51.228868073446" lon="4.464375708443">
        <ele>0</ele>
        <time>2019-04-20T12:21:27Z</time>
      </trkpt>
      <trkpt lat="51.228674786832" lon="4.464372188045">
        <ele>0</ele>
        <time>2019-04-20T12:21:35Z</time>
      </trkpt>
      <trkpt lat="51.22854335864" lon="4.46452348134">
        <ele>0</ele>
        <time>2019-04-20T12:21:43Z</time>
      </trkpt>
      <trkpt lat="51.228567833788" lon="4.464831599984">
        <ele>0</ele>
        <time>2019-04-20T12:21:51Z</time>
      </trkpt>
      <trkpt lat="51.228586190149" lon="4.465136114411">
        <ele>0</ele>
        <time>2019-04-20T12:21:59Z</time>
      </trkpt>
      <trkpt lat="51.228605217062" lon="4.465438701001">
        <ele>2</ele>
        <time>2019-04-20T12:22:07Z</time>
      </trkpt>
      <trkpt lat="51.228555177119" lon="4.465707927629">
        <ele>5</ele>
        <time>2019-04-20T12:22:15Z</time>
      </trkpt>
      <trkpt lat="51.228421401995" lon="4.465939351888">
        <ele>10.6</ele>
        <time>2019-04-20T12:22:24Z</time>
      </trkpt>
      <trkpt lat="51.228275221659" lon="4.46612610062">
        <ele>13.4</ele>
        <time>2019-04-20T12:22:32Z</time>
      </trkpt>
      <trkpt lat="51.228098866483" lon="4.466251493844">
        <ele>15.8</ele>
        <time>2019-04-20T12:22:40Z</time>
      </trkpt>
      <trkpt lat="51.227954697803" lon="4.46602887058">
        <ele>15.4</ele>
        <time>2019-04-20T12:22:48Z</time>
      </trkpt>
      <trkpt lat="51.22793147994" lon="4.465710526018">
        <ele>13</ele>
        <time>2019-04-20T12:22:56Z</time>
      </trkpt>
      <trkpt lat="51.227929468284" lon="4.465398216424">
        <ele>8.4</ele>
        <time>2019-04-20T12:23:04Z</time>
      </trkpt>
      <trkpt lat="51.227873812468" lon="4.46508255407">
        <ele>3.6</ele>
        <time>2019-04-20T12:23:13Z</time>
      </trkpt>
      <trkpt lat="51.227826287095" lon="4.464805196999">
        <ele>1.4</ele>
        <time>2019-04-20T12:23:20Z</time>
      </trkpt>
      <trkpt lat="51.227822347602" lon="4.464481739478">
        <ele>2.4</ele>
        <time>2019-04-20T12:23:27Z</time>
      </trkpt>
      <trkpt lat="51.227805667621" lon="4.46418904353">
        <ele>2.8</ele>
        <time>2019-04-20T12:23:34Z</time>
      </trkpt>
      <trkpt lat="51.227726207209" lon="4.463674562508">
        <ele>0</ele>
        <time>2019-04-20T12:23:46Z</time>
      </trkpt>
      <trkpt lat="51.227689410668" lon="4.463390080822">
        <ele>0</ele>
        <time>2019-04-20T12:23:53Z</time>
      </trkpt>
      <trkpt lat="51.227663426778" lon="4.463104341851">
        <ele>0</ele>
        <time>2019-04-20T12:24:00Z</time>
      </trkpt>
      <trkpt lat="51.227624534762" lon="4.462815501577">
        <ele>1.2</ele>
        <time>2019-04-20T12:24:07Z</time>
      </trkpt>
      <trkpt lat="51.227554713535" lon="4.46253445647">
        <ele>3.4</ele>
        <time>2019-04-20T12:24:15Z</time>
      </trkpt>
      <trkpt lat="51.227466368309" lon="4.462244694187">
        <ele>4.6</ele>
        <time>2019-04-20T12:24:24Z</time>
      </trkpt>
      <trkpt lat="51.227431583424" lon="4.461950070402">
        <ele>3.8</ele>
        <time>2019-04-20T12:24:32Z</time>
      </trkpt>
      <trkpt lat="51.22737240721" lon="4.461671036951">
        <ele>2.8</ele>
        <time>2019-04-20T12:24:40Z</time>
      </trkpt>
      <trkpt lat="51.22735396703" lon="4.461377083718">
        <ele>4.6</ele>
        <time>2019-04-20T12:24:48Z</time>
      </trkpt>
      <trkpt lat="51.227346255682" lon="4.461071479644">
        <ele>2</ele>
        <time>2019-04-20T12:24:58Z</time>
      </trkpt>
      <trkpt lat="51.227351536279" lon="4.460779873343">
        <ele>6.2</ele>
        <time>2019-04-20T12:25:09Z</time>
      </trkpt>
      <trkpt lat="51.227343657293" lon="4.460476616201">
        <ele>5.2</ele>
        <time>2019-04-20T12:25:18Z</time>
      </trkpt>
      <trkpt lat="51.227268639288" lon="4.460197834207">
        <ele>8.2</ele>
        <time>2019-04-20T12:25:27Z</time>
      </trkpt>
      <trkpt lat="51.227210049807" lon="4.459901953137">
        <ele>9.2</ele>
        <time>2019-04-20T12:25:35Z</time>
      </trkpt>
      <trkpt lat="51.227138384562" lon="4.459632977966">
        <ele>7.6</ele>
        <time>2019-04-20T12:25:42Z</time>
      </trkpt>
      <trkpt lat="51.227081471461" lon="4.45937615655">
        <ele>6</ele>
        <time>2019-04-20T12:25:52Z</time>
      </trkpt>
      <trkpt lat="51.227229663453" lon="4.459168872163">
        <ele>4.8</ele>
        <time>2019-04-20T12:26:01Z</time>
      </trkpt>
      <trkpt lat="51.227390931209" lon="4.45900064743">
        <ele>7</ele>
        <time>2019-04-20T12:26:09Z</time>
      </trkpt>
      <trkpt lat="51.227568962765" lon="4.45885396418">
        <ele>6.8</ele>
        <time>2019-04-20T12:26:18Z</time>
      </trkpt>
      <trkpt lat="51.227738109507" lon="4.458723960911">
        <ele>5.8</ele>
        <time>2019-04-20T12:26:26Z</time>
      </trkpt>
      <trkpt lat="51.22792980356" lon="4.458608290691">
        <ele>2</ele>
        <time>2019-04-20T12:26:36Z</time>
      </trkpt>
      <trkpt lat="51.228116049378" lon="4.458500080362">
        <ele>2.6</ele>
        <time>2019-04-20T12:26:44Z</time>
      </trkpt>
      <trkpt lat="51.228300786454" lon="4.458362198107">
        <ele>3.6</ele>
        <time>2019-04-20T12:26:53Z</time>
      </trkpt>
      <trkpt lat="51.228487619005" lon="4.458283575885">
        <ele>6.2</ele>
        <time>2019-04-20T12:26:59Z</time>
      </trkpt>
      <trkpt lat="51.228681408533" lon="4.458241666385">
        <ele>7.8</ele>
        <time>2019-04-20T12:27:07Z</time>
      </trkpt>
      <trkpt lat="51.228866313247" lon="4.458169917321">
        <ele>7.6</ele>
        <time>2019-04-20T12:27:15Z</time>
      </trkpt>
      <trkpt lat="51.22904375807" lon="4.458066149399">
        <ele>8.4</ele>
        <time>2019-04-20T12:27:23Z</time>
      </trkpt>
      <trkpt lat="51.229225729119" lon="4.45798811391">
        <ele>7.4</ele>
        <time>2019-04-20T12:27:31Z</time>
      </trkpt>
      <trkpt lat="51.229406275245" lon="4.457916448665">
        <ele>7.2</ele>
        <time>2019-04-20T12:27:39Z</time>
      </trkpt>
      <trkpt lat="51.229600232411" lon="4.45783388695">
        <ele>7.2</ele>
        <time>2019-04-20T12:27:47Z</time>
      </trkpt>
      <trkpt lat="51.229784466573" lon="4.457814692399">
        <ele>8.2</ele>
        <time>2019-04-20T12:27:54Z</time>
      </trkpt>
      <trkpt lat="51.229991164227" lon="4.457796000762">
        <ele>8.8</ele>
        <time>2019-04-20T12:28:02Z</time>
      </trkpt>
      <trkpt lat="51.230188641791" lon="4.457742105145">
        <ele>6.8</ele>
        <time>2019-04-20T12:28:10Z</time>
      </trkpt>
      <trkpt lat="51.230365248424" lon="4.457672535375">
        <ele>5.2</ele>
        <time>2019-04-20T12:28:18Z</time>
      </trkpt>
      <trkpt lat="51.230559708504" lon="4.457627189296">
        <ele>5.8</ele>
        <time>2019-04-20T12:28:26Z</time>
      </trkpt>
      <trkpt lat="51.230622824211" lon="4.457634733006">
        <ele>6.2</ele>
        <time>2019-04-20T12:28:32Z</time>
      </trkpt>
      <trkpt lat="51.230445882302" lon="4.457693657763">
        <ele>3</ele>
        <time>2019-04-20T12:28:42Z</time>
      </trkpt>
      <trkpt lat="51.230265084719" lon="4.457799772617">
        <ele>0</ele>
        <time>2019-04-20T12:28:51Z</time>
      </trkpt>
      <trkpt lat="51.230086717887" lon="4.457843274678">
        <ele>0</ele>
        <time>2019-04-20T12:28:59Z</time>
      </trkpt>
      <trkpt lat="51.229890497608" lon="4.457866408722">
        <ele>0</ele>
        <time>2019-04-20T12:29:08Z</time>
      </trkpt>
      <trkpt lat="51.229714980622" lon="4.457963554943">
        <ele>0</ele>
        <time>2019-04-20T12:29:16Z</time>
      </trkpt>
      <trkpt lat="51.229535272686" lon="4.458090708366">
        <ele>0</ele>
        <time>2019-04-20T12:29:24Z</time>
      </trkpt>
      <trkpt lat="51.229346763755" lon="4.458122475767">
        <ele>0</ele>
        <time>2019-04-20T12:29:31Z</time>
      </trkpt>
      <trkpt lat="51.229142999766" lon="4.458177712488">
        <ele>0</ele>
        <time>2019-04-20T12:29:39Z</time>
      </trkpt>
      <trkpt lat="51.228950383704" lon="4.458226411327">
        <ele>0</ele>
        <time>2019-04-20T12:29:46Z</time>
      </trkpt>
      <trkpt lat="51.228779476763" lon="4.458254574511">
        <ele>0</ele>
        <time>2019-04-20T12:29:55Z</time>
      </trkpt>
      <trkpt lat="51.228806466481" lon="4.458243091308">
        <ele>0</ele>
        <time>2019-04-20T12:29:58Z</time>
      </trkpt>
      <trkpt lat="51.228820715711" lon="4.458229428811">
        <ele>0</ele>
        <time>2019-04-20T12:30:00Z</time>
      </trkpt>
      <trkpt lat="51.229012493583" lon="4.458115351152">
        <ele>0</ele>
        <time>2019-04-20T12:30:09Z</time>
      </trkpt>
      <trkpt lat="51.229267806257" lon="4.458004542434">
        <ele>3.4</ele>
        <time>2019-04-20T12:30:20Z</time>
      </trkpt>
    </trkseg>
  </trk>
</gpx>